<?xml version="1.0" encoding="UTF-8" standalone="no" ?>
<gpx xmlns="http://www.topografix.com/GPX/1/1" xmlns:xsi="http://www.w3.org/2001/XMLSchema-instance" xsi:schemaLocation="http://www.topografix.com/GPX/1/1 http://www.topografix.com/GPX/1/1/gpx.xsd" version="1.1" creator="VisuGPX - https://www.visugpx.com">
  <metadata>
    <name>06-Mj-2011-15-6-Thorenc - la Station</name>
    <desc><![CDATA[Thorenc - la Station]]></desc>
  </metadata>
  <trk>
    <name><![CDATA[2011-06-15-thorenc station cor]]></name>
    <trkseg>
      <trkpt lat="43.79947" lon="6.8013">
        <ele>1153</ele>
        <time>2011-06-15T07:44:02Z</time>
      </trkpt>
      <trkpt lat="43.79943" lon="6.80141">
        <ele>1176</ele>
        <time>2011-06-15T07:47:21Z</time>
      </trkpt>
      <trkpt lat="43.79943" lon="6.80142">
        <ele>1175.900024</ele>
        <time>2011-06-15T07:47:22Z</time>
      </trkpt>
      <trkpt lat="43.79928" lon="6.80148">
        <ele>1175.400024</ele>
        <time>2011-06-15T07:47:44Z</time>
      </trkpt>
      <trkpt lat="43.7992" lon="6.80145">
        <ele>1175.599976</ele>
        <time>2011-06-15T07:47:55Z</time>
      </trkpt>
      <trkpt lat="43.79911" lon="6.80145">
        <ele>1174.5</ele>
        <time>2011-06-15T07:48:03Z</time>
      </trkpt>
      <trkpt lat="43.79903" lon="6.80143">
        <ele>1174.800049</ele>
        <time>2011-06-15T07:48:10Z</time>
      </trkpt>
      <trkpt lat="43.79894" lon="6.80143">
        <ele>1174.699951</ele>
        <time>2011-06-15T07:48:18Z</time>
      </trkpt>
      <trkpt lat="43.79886" lon="6.80143">
        <ele>1172.599976</ele>
        <time>2011-06-15T07:48:24Z</time>
      </trkpt>
      <trkpt lat="43.79885" lon="6.80143">
        <ele>1172</ele>
        <time>2011-06-15T07:48:25Z</time>
      </trkpt>
      <trkpt lat="43.79871" lon="6.80138">
        <ele>1167.800049</ele>
        <time>2011-06-15T07:48:37Z</time>
      </trkpt>
      <trkpt lat="43.79865" lon="6.8013">
        <ele>1166</ele>
        <time>2011-06-15T07:48:45Z</time>
      </trkpt>
      <trkpt lat="43.7986" lon="6.80121">
        <ele>1164.400024</ele>
        <time>2011-06-15T07:48:53Z</time>
      </trkpt>
      <trkpt lat="43.79854" lon="6.80113">
        <ele>1160.199951</ele>
        <time>2011-06-15T07:49:00Z</time>
      </trkpt>
      <trkpt lat="43.79848" lon="6.80104">
        <ele>1159.300049</ele>
        <time>2011-06-15T07:49:08Z</time>
      </trkpt>
      <trkpt lat="43.79843" lon="6.80095">
        <ele>1160.300049</ele>
        <time>2011-06-15T07:49:15Z</time>
      </trkpt>
      <trkpt lat="43.79837" lon="6.80086">
        <ele>1160</ele>
        <time>2011-06-15T07:49:23Z</time>
      </trkpt>
      <trkpt lat="43.79834" lon="6.80076">
        <ele>1158.400024</ele>
        <time>2011-06-15T07:49:29Z</time>
      </trkpt>
      <trkpt lat="43.79833" lon="6.80074">
        <ele>1158.099976</ele>
        <time>2011-06-15T07:49:30Z</time>
      </trkpt>
      <trkpt lat="43.79825" lon="6.80056">
        <ele>1154.400024</ele>
        <time>2011-06-15T07:49:43Z</time>
      </trkpt>
      <trkpt lat="43.7982" lon="6.80047">
        <ele>1152.5</ele>
        <time>2011-06-15T07:49:50Z</time>
      </trkpt>
      <trkpt lat="43.79817" lon="6.80036">
        <ele>1152.099976</ele>
        <time>2011-06-15T07:49:57Z</time>
      </trkpt>
      <trkpt lat="43.79816" lon="6.80025">
        <ele>1152.599976</ele>
        <time>2011-06-15T07:50:02Z</time>
      </trkpt>
      <trkpt lat="43.79815" lon="6.80014">
        <ele>1154.099976</ele>
        <time>2011-06-15T07:50:07Z</time>
      </trkpt>
      <trkpt lat="43.79815" lon="6.80002">
        <ele>1156</ele>
        <time>2011-06-15T07:50:13Z</time>
      </trkpt>
      <trkpt lat="43.79813" lon="6.7999">
        <ele>1157.900024</ele>
        <time>2011-06-15T07:50:20Z</time>
      </trkpt>
      <trkpt lat="43.79811" lon="6.7998">
        <ele>1159.900024</ele>
        <time>2011-06-15T07:50:26Z</time>
      </trkpt>
      <trkpt lat="43.79811" lon="6.79968">
        <ele>1161.900024</ele>
        <time>2011-06-15T07:50:33Z</time>
      </trkpt>
      <trkpt lat="43.79812" lon="6.79967">
        <ele>1162</ele>
        <time>2011-06-15T07:50:34Z</time>
      </trkpt>
      <trkpt lat="43.79825" lon="6.79957">
        <ele>1158</ele>
        <time>2011-06-15T07:50:49Z</time>
      </trkpt>
      <trkpt lat="43.79832" lon="6.79953">
        <ele>1158</ele>
        <time>2011-06-15T07:50:55Z</time>
      </trkpt>
      <trkpt lat="43.7984" lon="6.79949">
        <ele>1160.099976</ele>
        <time>2011-06-15T07:51:02Z</time>
      </trkpt>
      <trkpt lat="43.79848" lon="6.79945">
        <ele>1161</ele>
        <time>2011-06-15T07:51:13Z</time>
      </trkpt>
      <trkpt lat="43.79857" lon="6.79941">
        <ele>1160.400024</ele>
        <time>2011-06-15T07:51:20Z</time>
      </trkpt>
      <trkpt lat="43.79865" lon="6.79938">
        <ele>1107.400024</ele>
        <time>2011-06-15T07:51:29Z</time>
      </trkpt>
      <trkpt lat="43.79873" lon="6.79935">
        <ele>1093.300049</ele>
        <time>2011-06-15T07:51:37Z</time>
      </trkpt>
      <trkpt lat="43.79874" lon="6.79934">
        <ele>1093</ele>
        <time>2011-06-15T07:51:38Z</time>
      </trkpt>
      <trkpt lat="43.79889" lon="6.79926">
        <ele>1093.099976</ele>
        <time>2011-06-15T07:51:55Z</time>
      </trkpt>
      <trkpt lat="43.79897" lon="6.79924">
        <ele>1093.900024</ele>
        <time>2011-06-15T07:52:02Z</time>
      </trkpt>
      <trkpt lat="43.79906" lon="6.79921">
        <ele>1094.599976</ele>
        <time>2011-06-15T07:52:08Z</time>
      </trkpt>
      <trkpt lat="43.79914" lon="6.79922">
        <ele>1095.599976</ele>
        <time>2011-06-15T07:52:37Z</time>
      </trkpt>
      <trkpt lat="43.79919" lon="6.79931">
        <ele>1095.800049</ele>
        <time>2011-06-15T07:52:45Z</time>
      </trkpt>
      <trkpt lat="43.7992" lon="6.79932">
        <ele>1096</ele>
        <time>2011-06-15T07:52:46Z</time>
      </trkpt>
      <trkpt lat="43.79931" lon="6.79948">
        <ele>1096.699951</ele>
        <time>2011-06-15T07:53:04Z</time>
      </trkpt>
      <trkpt lat="43.79937" lon="6.79956">
        <ele>1097.400024</ele>
        <time>2011-06-15T07:53:11Z</time>
      </trkpt>
      <trkpt lat="43.79944" lon="6.79962">
        <ele>1098.099976</ele>
        <time>2011-06-15T07:53:17Z</time>
      </trkpt>
      <trkpt lat="43.7995" lon="6.79968">
        <ele>1098.5</ele>
        <time>2011-06-15T07:53:23Z</time>
      </trkpt>
      <trkpt lat="43.79957" lon="6.79974">
        <ele>1099.599976</ele>
        <time>2011-06-15T07:53:30Z</time>
      </trkpt>
      <trkpt lat="43.79964" lon="6.79983">
        <ele>1101</ele>
        <time>2011-06-15T07:53:39Z</time>
      </trkpt>
      <trkpt lat="43.79971" lon="6.79989">
        <ele>1102.099976</ele>
        <time>2011-06-15T07:53:49Z</time>
      </trkpt>
      <trkpt lat="43.79972" lon="6.7999">
        <ele>1102.199951</ele>
        <time>2011-06-15T07:53:50Z</time>
      </trkpt>
      <trkpt lat="43.79988" lon="6.79987">
        <ele>1102.800049</ele>
        <time>2011-06-15T07:54:07Z</time>
      </trkpt>
      <trkpt lat="43.79995" lon="6.7998">
        <ele>1106.199951</ele>
        <time>2011-06-15T07:54:22Z</time>
      </trkpt>
      <trkpt lat="43.79997" lon="6.79968">
        <ele>1107.900024</ele>
        <time>2011-06-15T07:54:35Z</time>
      </trkpt>
      <trkpt lat="43.79998" lon="6.79957">
        <ele>1109.199951</ele>
        <time>2011-06-15T07:54:45Z</time>
      </trkpt>
      <trkpt lat="43.79998" lon="6.79945">
        <ele>1110.800049</ele>
        <time>2011-06-15T07:54:57Z</time>
      </trkpt>
      <trkpt lat="43.79999" lon="6.79944">
        <ele>1110.800049</ele>
        <time>2011-06-15T07:54:58Z</time>
      </trkpt>
      <trkpt lat="43.80004" lon="6.79923">
        <ele>1111.099976</ele>
        <time>2011-06-15T07:55:14Z</time>
      </trkpt>
      <trkpt lat="43.80007" lon="6.79912">
        <ele>1111.599976</ele>
        <time>2011-06-15T07:55:22Z</time>
      </trkpt>
      <trkpt lat="43.80011" lon="6.79902">
        <ele>1112.400024</ele>
        <time>2011-06-15T07:55:29Z</time>
      </trkpt>
      <trkpt lat="43.80016" lon="6.79894">
        <ele>1112.699951</ele>
        <time>2011-06-15T07:55:36Z</time>
      </trkpt>
      <trkpt lat="43.80024" lon="6.79888">
        <ele>1113</ele>
        <time>2011-06-15T07:55:43Z</time>
      </trkpt>
      <trkpt lat="43.80031" lon="6.79885">
        <ele>1114</ele>
        <time>2011-06-15T07:55:53Z</time>
      </trkpt>
      <trkpt lat="43.80037" lon="6.79876">
        <ele>1114.5</ele>
        <time>2011-06-15T07:56:10Z</time>
      </trkpt>
      <trkpt lat="43.80038" lon="6.79875">
        <ele>1114.5</ele>
        <time>2011-06-15T07:56:11Z</time>
      </trkpt>
      <trkpt lat="43.80049" lon="6.79859">
        <ele>1116.300049</ele>
        <time>2011-06-15T07:56:30Z</time>
      </trkpt>
      <trkpt lat="43.80056" lon="6.79851">
        <ele>1118.300049</ele>
        <time>2011-06-15T07:56:40Z</time>
      </trkpt>
      <trkpt lat="43.80063" lon="6.79845">
        <ele>1119.199951</ele>
        <time>2011-06-15T07:56:49Z</time>
      </trkpt>
      <trkpt lat="43.80069" lon="6.79837">
        <ele>1120.300049</ele>
        <time>2011-06-15T07:56:58Z</time>
      </trkpt>
      <trkpt lat="43.80076" lon="6.7983">
        <ele>1121.400024</ele>
        <time>2011-06-15T07:57:06Z</time>
      </trkpt>
      <trkpt lat="43.80083" lon="6.79823">
        <ele>1122.099976</ele>
        <time>2011-06-15T07:57:15Z</time>
      </trkpt>
      <trkpt lat="43.80084" lon="6.79822">
        <ele>1122.199951</ele>
        <time>2011-06-15T07:57:16Z</time>
      </trkpt>
      <trkpt lat="43.80098" lon="6.7981">
        <ele>1124.5</ele>
        <time>2011-06-15T07:57:35Z</time>
      </trkpt>
      <trkpt lat="43.80106" lon="6.79807">
        <ele>1126</ele>
        <time>2011-06-15T07:57:46Z</time>
      </trkpt>
      <trkpt lat="43.80114" lon="6.79802">
        <ele>1127.800049</ele>
        <time>2011-06-15T07:57:58Z</time>
      </trkpt>
      <trkpt lat="43.80121" lon="6.79797">
        <ele>1130.099976</ele>
        <time>2011-06-15T07:58:10Z</time>
      </trkpt>
      <trkpt lat="43.8013" lon="6.79795">
        <ele>1132.099976</ele>
        <time>2011-06-15T07:58:24Z</time>
      </trkpt>
      <trkpt lat="43.80131" lon="6.79794">
        <ele>1132.300049</ele>
        <time>2011-06-15T07:58:25Z</time>
      </trkpt>
      <trkpt lat="43.80145" lon="6.79783">
        <ele>1136.199951</ele>
        <time>2011-06-15T07:58:45Z</time>
      </trkpt>
      <trkpt lat="43.80152" lon="6.79776">
        <ele>1138</ele>
        <time>2011-06-15T07:58:56Z</time>
      </trkpt>
      <trkpt lat="43.80159" lon="6.7977">
        <ele>1139.5</ele>
        <time>2011-06-15T07:59:06Z</time>
      </trkpt>
      <trkpt lat="43.80167" lon="6.79765">
        <ele>1140.800049</ele>
        <time>2011-06-15T07:59:16Z</time>
      </trkpt>
      <trkpt lat="43.80175" lon="6.79762">
        <ele>1142.199951</ele>
        <time>2011-06-15T07:59:26Z</time>
      </trkpt>
      <trkpt lat="43.80175" lon="6.79762">
        <ele>1142.599976</ele>
        <time>2011-06-15T07:59:27Z</time>
      </trkpt>
      <trkpt lat="43.8019" lon="6.79753">
        <ele>1144.199951</ele>
        <time>2011-06-15T07:59:45Z</time>
      </trkpt>
      <trkpt lat="43.80199" lon="6.79749">
        <ele>1144.800049</ele>
        <time>2011-06-15T07:59:54Z</time>
      </trkpt>
      <trkpt lat="43.80206" lon="6.79746">
        <ele>1145.199951</ele>
        <time>2011-06-15T08:00:02Z</time>
      </trkpt>
      <trkpt lat="43.80214" lon="6.79742">
        <ele>1146.300049</ele>
        <time>2011-06-15T08:00:10Z</time>
      </trkpt>
      <trkpt lat="43.80222" lon="6.79738">
        <ele>1145.5</ele>
        <time>2011-06-15T08:00:18Z</time>
      </trkpt>
      <trkpt lat="43.80229" lon="6.79731">
        <ele>1145.400024</ele>
        <time>2011-06-15T08:00:29Z</time>
      </trkpt>
      <trkpt lat="43.80229" lon="6.7973">
        <ele>1145.300049</ele>
        <time>2011-06-15T08:00:30Z</time>
      </trkpt>
      <trkpt lat="43.80241" lon="6.79716">
        <ele>1146.099976</ele>
        <time>2011-06-15T08:00:55Z</time>
      </trkpt>
      <trkpt lat="43.80233" lon="6.79713">
        <ele>1146.5</ele>
        <time>2011-06-15T08:01:09Z</time>
      </trkpt>
      <trkpt lat="43.80224" lon="6.79714">
        <ele>1146.5</ele>
        <time>2011-06-15T08:01:18Z</time>
      </trkpt>
      <trkpt lat="43.80217" lon="6.79718">
        <ele>1146.5</ele>
        <time>2011-06-15T08:01:23Z</time>
      </trkpt>
      <trkpt lat="43.80208" lon="6.79714">
        <ele>1146.699951</ele>
        <time>2011-06-15T08:01:31Z</time>
      </trkpt>
      <trkpt lat="43.80207" lon="6.79713">
        <ele>1146.800049</ele>
        <time>2011-06-15T08:01:32Z</time>
      </trkpt>
      <trkpt lat="43.80198" lon="6.79696">
        <ele>1147.699951</ele>
        <time>2011-06-15T08:01:47Z</time>
      </trkpt>
      <trkpt lat="43.80193" lon="6.79687">
        <ele>1148.800049</ele>
        <time>2011-06-15T08:01:55Z</time>
      </trkpt>
      <trkpt lat="43.80186" lon="6.79681">
        <ele>1149.900024</ele>
        <time>2011-06-15T08:02:04Z</time>
      </trkpt>
      <trkpt lat="43.80181" lon="6.79672">
        <ele>1150.800049</ele>
        <time>2011-06-15T08:02:13Z</time>
      </trkpt>
      <trkpt lat="43.80177" lon="6.79661">
        <ele>1151.400024</ele>
        <time>2011-06-15T08:02:20Z</time>
      </trkpt>
      <trkpt lat="43.80173" lon="6.7965">
        <ele>1152.099976</ele>
        <time>2011-06-15T08:02:28Z</time>
      </trkpt>
      <trkpt lat="43.8017" lon="6.79638">
        <ele>1152.5</ele>
        <time>2011-06-15T08:02:36Z</time>
      </trkpt>
      <trkpt lat="43.8017" lon="6.79637">
        <ele>1152.5</ele>
        <time>2011-06-15T08:02:37Z</time>
      </trkpt>
      <trkpt lat="43.80163" lon="6.79618">
        <ele>1154</ele>
        <time>2011-06-15T08:02:52Z</time>
      </trkpt>
      <trkpt lat="43.80156" lon="6.79611">
        <ele>1154.599976</ele>
        <time>2011-06-15T08:03:02Z</time>
      </trkpt>
      <trkpt lat="43.80147" lon="6.79608">
        <ele>1155.599976</ele>
        <time>2011-06-15T08:03:11Z</time>
      </trkpt>
      <trkpt lat="43.8014" lon="6.79601">
        <ele>1157.400024</ele>
        <time>2011-06-15T08:03:20Z</time>
      </trkpt>
      <trkpt lat="43.80132" lon="6.79596">
        <ele>1158.900024</ele>
        <time>2011-06-15T08:03:29Z</time>
      </trkpt>
      <trkpt lat="43.80128" lon="6.79586">
        <ele>1160.800049</ele>
        <time>2011-06-15T08:03:38Z</time>
      </trkpt>
      <trkpt lat="43.80127" lon="6.79585">
        <ele>1160.900024</ele>
        <time>2011-06-15T08:03:39Z</time>
      </trkpt>
      <trkpt lat="43.80126" lon="6.79563">
        <ele>1163.599976</ele>
        <time>2011-06-15T08:03:58Z</time>
      </trkpt>
      <trkpt lat="43.80126" lon="6.79552">
        <ele>1164.699951</ele>
        <time>2011-06-15T08:04:06Z</time>
      </trkpt>
      <trkpt lat="43.80128" lon="6.7954">
        <ele>1165.599976</ele>
        <time>2011-06-15T08:04:14Z</time>
      </trkpt>
      <trkpt lat="43.80136" lon="6.79536">
        <ele>1167.199951</ele>
        <time>2011-06-15T08:04:28Z</time>
      </trkpt>
      <trkpt lat="43.80145" lon="6.79538">
        <ele>1169.300049</ele>
        <time>2011-06-15T08:04:43Z</time>
      </trkpt>
      <trkpt lat="43.80145" lon="6.79539">
        <ele>1169.699951</ele>
        <time>2011-06-15T08:04:44Z</time>
      </trkpt>
      <trkpt lat="43.80161" lon="6.79547">
        <ele>1172.099976</ele>
        <time>2011-06-15T08:05:07Z</time>
      </trkpt>
      <trkpt lat="43.80169" lon="6.79552">
        <ele>1173.599976</ele>
        <time>2011-06-15T08:05:19Z</time>
      </trkpt>
      <trkpt lat="43.80178" lon="6.79554">
        <ele>1174.800049</ele>
        <time>2011-06-15T08:05:31Z</time>
      </trkpt>
      <trkpt lat="43.80186" lon="6.79556">
        <ele>1176.900024</ele>
        <time>2011-06-15T08:05:42Z</time>
      </trkpt>
      <trkpt lat="43.80195" lon="6.79557">
        <ele>1178.5</ele>
        <time>2011-06-15T08:05:52Z</time>
      </trkpt>
      <trkpt lat="43.80196" lon="6.79557">
        <ele>1178.5</ele>
        <time>2011-06-15T08:05:53Z</time>
      </trkpt>
      <trkpt lat="43.80212" lon="6.7956">
        <ele>1181.699951</ele>
        <time>2011-06-15T08:06:13Z</time>
      </trkpt>
      <trkpt lat="43.80221" lon="6.79564">
        <ele>1183.300049</ele>
        <time>2011-06-15T08:06:24Z</time>
      </trkpt>
      <trkpt lat="43.80229" lon="6.79569">
        <ele>1184.400024</ele>
        <time>2011-06-15T08:06:34Z</time>
      </trkpt>
      <trkpt lat="43.80237" lon="6.79573">
        <ele>1185.900024</ele>
        <time>2011-06-15T08:06:44Z</time>
      </trkpt>
      <trkpt lat="43.80245" lon="6.79578">
        <ele>1187.199951</ele>
        <time>2011-06-15T08:06:54Z</time>
      </trkpt>
      <trkpt lat="43.80245" lon="6.79578">
        <ele>1187.400024</ele>
        <time>2011-06-15T08:06:55Z</time>
      </trkpt>
      <trkpt lat="43.80254" lon="6.79566">
        <ele>1188.900024</ele>
        <time>2011-06-15T08:09:24Z</time>
      </trkpt>
      <trkpt lat="43.80253" lon="6.79565">
        <ele>1189</ele>
        <time>2011-06-15T08:09:25Z</time>
      </trkpt>
      <trkpt lat="43.8024" lon="6.79551">
        <ele>1190.699951</ele>
        <time>2011-06-15T08:09:46Z</time>
      </trkpt>
      <trkpt lat="43.80234" lon="6.79543">
        <ele>1191.699951</ele>
        <time>2011-06-15T08:09:55Z</time>
      </trkpt>
      <trkpt lat="43.80229" lon="6.79534">
        <ele>1192</ele>
        <time>2011-06-15T08:10:04Z</time>
      </trkpt>
      <trkpt lat="43.80222" lon="6.79526">
        <ele>1192.300049</ele>
        <time>2011-06-15T08:10:13Z</time>
      </trkpt>
      <trkpt lat="43.80216" lon="6.79518">
        <ele>1192.099976</ele>
        <time>2011-06-15T08:10:22Z</time>
      </trkpt>
      <trkpt lat="43.80208" lon="6.79512">
        <ele>1192.300049</ele>
        <time>2011-06-15T08:10:31Z</time>
      </trkpt>
      <trkpt lat="43.80208" lon="6.79511">
        <ele>1192.400024</ele>
        <time>2011-06-15T08:10:32Z</time>
      </trkpt>
      <trkpt lat="43.80195" lon="6.79498">
        <ele>1192.800049</ele>
        <time>2011-06-15T08:10:47Z</time>
      </trkpt>
      <trkpt lat="43.8019" lon="6.79489">
        <ele>1193.5</ele>
        <time>2011-06-15T08:10:54Z</time>
      </trkpt>
      <trkpt lat="43.80186" lon="6.79479">
        <ele>1193.300049</ele>
        <time>2011-06-15T08:11:01Z</time>
      </trkpt>
      <trkpt lat="43.80181" lon="6.79468">
        <ele>1193.699951</ele>
        <time>2011-06-15T08:11:17Z</time>
      </trkpt>
      <trkpt lat="43.80183" lon="6.79457">
        <ele>1195</ele>
        <time>2011-06-15T08:11:27Z</time>
      </trkpt>
      <trkpt lat="43.80184" lon="6.79445">
        <ele>1195.400024</ele>
        <time>2011-06-15T08:11:35Z</time>
      </trkpt>
      <trkpt lat="43.80184" lon="6.79444">
        <ele>1195.300049</ele>
        <time>2011-06-15T08:11:36Z</time>
      </trkpt>
      <trkpt lat="43.8018" lon="6.79421">
        <ele>1194.5</ele>
        <time>2011-06-15T08:11:51Z</time>
      </trkpt>
      <trkpt lat="43.80179" lon="6.79409">
        <ele>1194.599976</ele>
        <time>2011-06-15T08:11:59Z</time>
      </trkpt>
      <trkpt lat="43.80178" lon="6.79397">
        <ele>1194.5</ele>
        <time>2011-06-15T08:12:07Z</time>
      </trkpt>
      <trkpt lat="43.80179" lon="6.79386">
        <ele>1194.699951</ele>
        <time>2011-06-15T08:12:14Z</time>
      </trkpt>
      <trkpt lat="43.8018" lon="6.79374">
        <ele>1194.699951</ele>
        <time>2011-06-15T08:12:21Z</time>
      </trkpt>
      <trkpt lat="43.80185" lon="6.79365">
        <ele>1194.699951</ele>
        <time>2011-06-15T08:12:29Z</time>
      </trkpt>
      <trkpt lat="43.80193" lon="6.79365">
        <ele>1194.400024</ele>
        <time>2011-06-15T08:12:38Z</time>
      </trkpt>
      <trkpt lat="43.80194" lon="6.79365">
        <ele>1194.599976</ele>
        <time>2011-06-15T08:12:39Z</time>
      </trkpt>
      <trkpt lat="43.80207" lon="6.79377">
        <ele>1192.400024</ele>
        <time>2011-06-15T08:12:54Z</time>
      </trkpt>
      <trkpt lat="43.80216" lon="6.7938">
        <ele>1191.900024</ele>
        <time>2011-06-15T08:13:02Z</time>
      </trkpt>
      <trkpt lat="43.80224" lon="6.79386">
        <ele>1190.800049</ele>
        <time>2011-06-15T08:13:09Z</time>
      </trkpt>
      <trkpt lat="43.80232" lon="6.79386">
        <ele>1191.199951</ele>
        <time>2011-06-15T08:13:16Z</time>
      </trkpt>
      <trkpt lat="43.80238" lon="6.79379">
        <ele>1191.400024</ele>
        <time>2011-06-15T08:13:23Z</time>
      </trkpt>
      <trkpt lat="43.80241" lon="6.79368">
        <ele>1191.699951</ele>
        <time>2011-06-15T08:13:31Z</time>
      </trkpt>
      <trkpt lat="43.80245" lon="6.79358">
        <ele>1191.699951</ele>
        <time>2011-06-15T08:13:38Z</time>
      </trkpt>
      <trkpt lat="43.8025" lon="6.79349">
        <ele>1191.699951</ele>
        <time>2011-06-15T08:13:45Z</time>
      </trkpt>
      <trkpt lat="43.80251" lon="6.79348">
        <ele>1191.800049</ele>
        <time>2011-06-15T08:13:46Z</time>
      </trkpt>
      <trkpt lat="43.80263" lon="6.79333">
        <ele>1191.400024</ele>
        <time>2011-06-15T08:13:59Z</time>
      </trkpt>
      <trkpt lat="43.8027" lon="6.79325">
        <ele>1190.800049</ele>
        <time>2011-06-15T08:14:06Z</time>
      </trkpt>
      <trkpt lat="43.80273" lon="6.79314">
        <ele>1190.800049</ele>
        <time>2011-06-15T08:14:14Z</time>
      </trkpt>
      <trkpt lat="43.8027" lon="6.79304">
        <ele>1191.400024</ele>
        <time>2011-06-15T08:14:22Z</time>
      </trkpt>
      <trkpt lat="43.80269" lon="6.79292">
        <ele>1191.199951</ele>
        <time>2011-06-15T08:14:30Z</time>
      </trkpt>
      <trkpt lat="43.80266" lon="6.7928">
        <ele>1191</ele>
        <time>2011-06-15T08:14:39Z</time>
      </trkpt>
      <trkpt lat="43.80265" lon="6.79269">
        <ele>1189.300049</ele>
        <time>2011-06-15T08:14:48Z</time>
      </trkpt>
      <trkpt lat="43.80265" lon="6.79268">
        <ele>1189</ele>
        <time>2011-06-15T08:14:49Z</time>
      </trkpt>
      <trkpt lat="43.80274" lon="6.79249">
        <ele>1188.900024</ele>
        <time>2011-06-15T08:15:03Z</time>
      </trkpt>
      <trkpt lat="43.80278" lon="6.79238">
        <ele>1189.099976</ele>
        <time>2011-06-15T08:15:10Z</time>
      </trkpt>
      <trkpt lat="43.80277" lon="6.79226">
        <ele>1188.5</ele>
        <time>2011-06-15T08:15:17Z</time>
      </trkpt>
      <trkpt lat="43.80273" lon="6.79216">
        <ele>1189</ele>
        <time>2011-06-15T08:15:24Z</time>
      </trkpt>
      <trkpt lat="43.80267" lon="6.79209">
        <ele>1189.800049</ele>
        <time>2011-06-15T08:15:32Z</time>
      </trkpt>
      <trkpt lat="43.80259" lon="6.79202">
        <ele>1191</ele>
        <time>2011-06-15T08:15:42Z</time>
      </trkpt>
      <trkpt lat="43.80252" lon="6.79195">
        <ele>1192.800049</ele>
        <time>2011-06-15T08:15:52Z</time>
      </trkpt>
      <trkpt lat="43.80252" lon="6.79194">
        <ele>1192.800049</ele>
        <time>2011-06-15T08:15:53Z</time>
      </trkpt>
      <trkpt lat="43.80245" lon="6.79176">
        <ele>1194.5</ele>
        <time>2011-06-15T08:16:08Z</time>
      </trkpt>
      <trkpt lat="43.80244" lon="6.79163">
        <ele>1195.199951</ele>
        <time>2011-06-15T08:16:16Z</time>
      </trkpt>
      <trkpt lat="43.80245" lon="6.79151">
        <ele>1250.400024</ele>
        <time>2011-06-15T08:16:24Z</time>
      </trkpt>
      <trkpt lat="43.80245" lon="6.79139">
        <ele>1267.199951</ele>
        <time>2011-06-15T08:16:33Z</time>
      </trkpt>
      <trkpt lat="43.80246" lon="6.79127">
        <ele>1269.699951</ele>
        <time>2011-06-15T08:16:41Z</time>
      </trkpt>
      <trkpt lat="43.80249" lon="6.79117">
        <ele>1270.400024</ele>
        <time>2011-06-15T08:16:48Z</time>
      </trkpt>
      <trkpt lat="43.80253" lon="6.79107">
        <ele>1270.900024</ele>
        <time>2011-06-15T08:16:55Z</time>
      </trkpt>
      <trkpt lat="43.80253" lon="6.79106">
        <ele>1271</ele>
        <time>2011-06-15T08:16:56Z</time>
      </trkpt>
      <trkpt lat="43.80264" lon="6.79089">
        <ele>1272.699951</ele>
        <time>2011-06-15T08:17:11Z</time>
      </trkpt>
      <trkpt lat="43.80269" lon="6.79079">
        <ele>1273.5</ele>
        <time>2011-06-15T08:17:19Z</time>
      </trkpt>
      <trkpt lat="43.80275" lon="6.79071">
        <ele>1274.300049</ele>
        <time>2011-06-15T08:17:27Z</time>
      </trkpt>
      <trkpt lat="43.80281" lon="6.79061">
        <ele>1274.800049</ele>
        <time>2011-06-15T08:17:35Z</time>
      </trkpt>
      <trkpt lat="43.80288" lon="6.79055">
        <ele>1275.5</ele>
        <time>2011-06-15T08:17:43Z</time>
      </trkpt>
      <trkpt lat="43.80294" lon="6.79047">
        <ele>1276.099976</ele>
        <time>2011-06-15T08:17:51Z</time>
      </trkpt>
      <trkpt lat="43.803" lon="6.79038">
        <ele>1276.699951</ele>
        <time>2011-06-15T08:18:00Z</time>
      </trkpt>
      <trkpt lat="43.803" lon="6.79037">
        <ele>1276.800049</ele>
        <time>2011-06-15T08:18:01Z</time>
      </trkpt>
      <trkpt lat="43.80307" lon="6.79017">
        <ele>1278.099976</ele>
        <time>2011-06-15T08:18:19Z</time>
      </trkpt>
      <trkpt lat="43.80309" lon="6.79005">
        <ele>1277.599976</ele>
        <time>2011-06-15T08:18:27Z</time>
      </trkpt>
      <trkpt lat="43.80312" lon="6.78994">
        <ele>1278.300049</ele>
        <time>2011-06-15T08:18:35Z</time>
      </trkpt>
      <trkpt lat="43.80315" lon="6.78983">
        <ele>1277.800049</ele>
        <time>2011-06-15T08:18:43Z</time>
      </trkpt>
      <trkpt lat="43.80315" lon="6.78971">
        <ele>1277.199951</ele>
        <time>2011-06-15T08:18:52Z</time>
      </trkpt>
      <trkpt lat="43.80315" lon="6.7896">
        <ele>1276.800049</ele>
        <time>2011-06-15T08:19:00Z</time>
      </trkpt>
      <trkpt lat="43.80314" lon="6.78949">
        <ele>1277.199951</ele>
        <time>2011-06-15T08:19:08Z</time>
      </trkpt>
      <trkpt lat="43.80314" lon="6.78947">
        <ele>1277.400024</ele>
        <time>2011-06-15T08:19:09Z</time>
      </trkpt>
      <trkpt lat="43.80311" lon="6.78926">
        <ele>1277.900024</ele>
        <time>2011-06-15T08:19:23Z</time>
      </trkpt>
      <trkpt lat="43.80313" lon="6.78915">
        <ele>1278.199951</ele>
        <time>2011-06-15T08:19:29Z</time>
      </trkpt>
      <trkpt lat="43.80317" lon="6.78904">
        <ele>1277.599976</ele>
        <time>2011-06-15T08:19:35Z</time>
      </trkpt>
      <trkpt lat="43.80321" lon="6.78894">
        <ele>1277.199951</ele>
        <time>2011-06-15T08:19:41Z</time>
      </trkpt>
      <trkpt lat="43.8032" lon="6.78881">
        <ele>1277.400024</ele>
        <time>2011-06-15T08:19:49Z</time>
      </trkpt>
      <trkpt lat="43.8032" lon="6.78869">
        <ele>1277.300049</ele>
        <time>2011-06-15T08:19:56Z</time>
      </trkpt>
      <trkpt lat="43.8032" lon="6.78858">
        <ele>1277.199951</ele>
        <time>2011-06-15T08:20:03Z</time>
      </trkpt>
      <trkpt lat="43.80319" lon="6.78845">
        <ele>1275.900024</ele>
        <time>2011-06-15T08:20:11Z</time>
      </trkpt>
      <trkpt lat="43.80319" lon="6.78844">
        <ele>1275.699951</ele>
        <time>2011-06-15T08:20:12Z</time>
      </trkpt>
      <trkpt lat="43.80319" lon="6.78822">
        <ele>1274.300049</ele>
        <time>2011-06-15T08:20:27Z</time>
      </trkpt>
      <trkpt lat="43.80318" lon="6.78811">
        <ele>1272.599976</ele>
        <time>2011-06-15T08:20:35Z</time>
      </trkpt>
      <trkpt lat="43.80315" lon="6.788">
        <ele>1271.099976</ele>
        <time>2011-06-15T08:20:43Z</time>
      </trkpt>
      <trkpt lat="43.80311" lon="6.7879">
        <ele>1270.199951</ele>
        <time>2011-06-15T08:20:52Z</time>
      </trkpt>
      <trkpt lat="43.80309" lon="6.78778">
        <ele>1269.300049</ele>
        <time>2011-06-15T08:21:00Z</time>
      </trkpt>
      <trkpt lat="43.80305" lon="6.78768">
        <ele>1268.699951</ele>
        <time>2011-06-15T08:21:08Z</time>
      </trkpt>
      <trkpt lat="43.803" lon="6.78757">
        <ele>1267.400024</ele>
        <time>2011-06-15T08:21:16Z</time>
      </trkpt>
      <trkpt lat="43.803" lon="6.78756">
        <ele>1267.199951</ele>
        <time>2011-06-15T08:21:17Z</time>
      </trkpt>
      <trkpt lat="43.80289" lon="6.7874">
        <ele>1266</ele>
        <time>2011-06-15T08:21:33Z</time>
      </trkpt>
      <trkpt lat="43.80282" lon="6.78734">
        <ele>1266.099976</ele>
        <time>2011-06-15T08:21:39Z</time>
      </trkpt>
      <trkpt lat="43.80275" lon="6.78727">
        <ele>1267.099976</ele>
        <time>2011-06-15T08:21:45Z</time>
      </trkpt>
      <trkpt lat="43.80269" lon="6.7872">
        <ele>1267</ele>
        <time>2011-06-15T08:21:51Z</time>
      </trkpt>
      <trkpt lat="43.80265" lon="6.7871">
        <ele>1267.400024</ele>
        <time>2011-06-15T08:21:57Z</time>
      </trkpt>
      <trkpt lat="43.80262" lon="6.787">
        <ele>1267.5</ele>
        <time>2011-06-15T08:22:04Z</time>
      </trkpt>
      <trkpt lat="43.80262" lon="6.78688">
        <ele>1268</ele>
        <time>2011-06-15T08:22:11Z</time>
      </trkpt>
      <trkpt lat="43.8026" lon="6.78676">
        <ele>1268.300049</ele>
        <time>2011-06-15T08:22:19Z</time>
      </trkpt>
      <trkpt lat="43.80259" lon="6.78675">
        <ele>1268.5</ele>
        <time>2011-06-15T08:22:20Z</time>
      </trkpt>
      <trkpt lat="43.80252" lon="6.78655">
        <ele>1269.5</ele>
        <time>2011-06-15T08:22:35Z</time>
      </trkpt>
      <trkpt lat="43.80248" lon="6.78644">
        <ele>1270</ele>
        <time>2011-06-15T08:22:44Z</time>
      </trkpt>
      <trkpt lat="43.80245" lon="6.78634">
        <ele>1270.699951</ele>
        <time>2011-06-15T08:22:52Z</time>
      </trkpt>
      <trkpt lat="43.80243" lon="6.78623">
        <ele>1270.800049</ele>
        <time>2011-06-15T08:22:58Z</time>
      </trkpt>
      <trkpt lat="43.80242" lon="6.78611">
        <ele>1271.400024</ele>
        <time>2011-06-15T08:23:06Z</time>
      </trkpt>
      <trkpt lat="43.80241" lon="6.78599">
        <ele>1272.199951</ele>
        <time>2011-06-15T08:23:14Z</time>
      </trkpt>
      <trkpt lat="43.80239" lon="6.78588">
        <ele>1273.099976</ele>
        <time>2011-06-15T08:23:22Z</time>
      </trkpt>
      <trkpt lat="43.80239" lon="6.78587">
        <ele>1273.199951</ele>
        <time>2011-06-15T08:23:23Z</time>
      </trkpt>
      <trkpt lat="43.80237" lon="6.78565">
        <ele>1273.5</ele>
        <time>2011-06-15T08:23:37Z</time>
      </trkpt>
      <trkpt lat="43.80234" lon="6.78555">
        <ele>1273.599976</ele>
        <time>2011-06-15T08:23:44Z</time>
      </trkpt>
      <trkpt lat="43.80232" lon="6.78543">
        <ele>1274.400024</ele>
        <time>2011-06-15T08:23:52Z</time>
      </trkpt>
      <trkpt lat="43.80232" lon="6.78531">
        <ele>1274.400024</ele>
        <time>2011-06-15T08:23:59Z</time>
      </trkpt>
      <trkpt lat="43.80231" lon="6.7852">
        <ele>1274.599976</ele>
        <time>2011-06-15T08:24:06Z</time>
      </trkpt>
      <trkpt lat="43.80231" lon="6.78508">
        <ele>1275.300049</ele>
        <time>2011-06-15T08:24:14Z</time>
      </trkpt>
      <trkpt lat="43.80229" lon="6.78496">
        <ele>1274.400024</ele>
        <time>2011-06-15T08:24:23Z</time>
      </trkpt>
      <trkpt lat="43.80228" lon="6.78495">
        <ele>1274.300049</ele>
        <time>2011-06-15T08:24:24Z</time>
      </trkpt>
      <trkpt lat="43.80226" lon="6.78474">
        <ele>1275.099976</ele>
        <time>2011-06-15T08:24:39Z</time>
      </trkpt>
      <trkpt lat="43.80228" lon="6.78462">
        <ele>1275.800049</ele>
        <time>2011-06-15T08:24:46Z</time>
      </trkpt>
      <trkpt lat="43.8023" lon="6.78452">
        <ele>1276.300049</ele>
        <time>2011-06-15T08:24:52Z</time>
      </trkpt>
      <trkpt lat="43.80233" lon="6.7844">
        <ele>1277</ele>
        <time>2011-06-15T08:24:59Z</time>
      </trkpt>
      <trkpt lat="43.80235" lon="6.78428">
        <ele>1277.300049</ele>
        <time>2011-06-15T08:25:06Z</time>
      </trkpt>
      <trkpt lat="43.80238" lon="6.78417">
        <ele>1278.5</ele>
        <time>2011-06-15T08:25:14Z</time>
      </trkpt>
      <trkpt lat="43.80243" lon="6.78407">
        <ele>1278.599976</ele>
        <time>2011-06-15T08:25:22Z</time>
      </trkpt>
      <trkpt lat="43.80243" lon="6.78395">
        <ele>1279</ele>
        <time>2011-06-15T08:25:30Z</time>
      </trkpt>
      <trkpt lat="43.80243" lon="6.78394">
        <ele>1279.099976</ele>
        <time>2011-06-15T08:25:31Z</time>
      </trkpt>
      <trkpt lat="43.80232" lon="6.78378">
        <ele>1280.599976</ele>
        <time>2011-06-15T08:25:50Z</time>
      </trkpt>
      <trkpt lat="43.80228" lon="6.78368">
        <ele>1281</ele>
        <time>2011-06-15T08:25:58Z</time>
      </trkpt>
      <trkpt lat="43.80223" lon="6.78358">
        <ele>1281.599976</ele>
        <time>2011-06-15T08:26:06Z</time>
      </trkpt>
      <trkpt lat="43.80221" lon="6.78347">
        <ele>1282.5</ele>
        <time>2011-06-15T08:26:14Z</time>
      </trkpt>
      <trkpt lat="43.80223" lon="6.78335">
        <ele>1283</ele>
        <time>2011-06-15T08:26:22Z</time>
      </trkpt>
      <trkpt lat="43.80227" lon="6.78324">
        <ele>1283.400024</ele>
        <time>2011-06-15T08:26:30Z</time>
      </trkpt>
      <trkpt lat="43.80226" lon="6.78312">
        <ele>1284.300049</ele>
        <time>2011-06-15T08:26:39Z</time>
      </trkpt>
      <trkpt lat="43.80225" lon="6.78311">
        <ele>1284.400024</ele>
        <time>2011-06-15T08:26:40Z</time>
      </trkpt>
      <trkpt lat="43.8022" lon="6.78289">
        <ele>1285.400024</ele>
        <time>2011-06-15T08:26:55Z</time>
      </trkpt>
      <trkpt lat="43.80221" lon="6.78277">
        <ele>1286.199951</ele>
        <time>2011-06-15T08:27:04Z</time>
      </trkpt>
      <trkpt lat="43.80222" lon="6.78266">
        <ele>1287</ele>
        <time>2011-06-15T08:27:11Z</time>
      </trkpt>
      <trkpt lat="43.80223" lon="6.78254">
        <ele>1287.599976</ele>
        <time>2011-06-15T08:27:18Z</time>
      </trkpt>
      <trkpt lat="43.80223" lon="6.78242">
        <ele>1288.300049</ele>
        <time>2011-06-15T08:27:26Z</time>
      </trkpt>
      <trkpt lat="43.80224" lon="6.78231">
        <ele>1289.5</ele>
        <time>2011-06-15T08:27:33Z</time>
      </trkpt>
      <trkpt lat="43.80225" lon="6.78219">
        <ele>1289.5</ele>
        <time>2011-06-15T08:27:41Z</time>
      </trkpt>
      <trkpt lat="43.80225" lon="6.78218">
        <ele>1289.699951</ele>
        <time>2011-06-15T08:27:42Z</time>
      </trkpt>
      <trkpt lat="43.8023" lon="6.78197">
        <ele>1292</ele>
        <time>2011-06-15T08:27:57Z</time>
      </trkpt>
      <trkpt lat="43.80232" lon="6.78186">
        <ele>1292.5</ele>
        <time>2011-06-15T08:28:05Z</time>
      </trkpt>
      <trkpt lat="43.80234" lon="6.78175">
        <ele>1293.199951</ele>
        <time>2011-06-15T08:28:14Z</time>
      </trkpt>
      <trkpt lat="43.80235" lon="6.78164">
        <ele>1294</ele>
        <time>2011-06-15T08:28:21Z</time>
      </trkpt>
      <trkpt lat="43.80236" lon="6.78152">
        <ele>1294.599976</ele>
        <time>2011-06-15T08:28:30Z</time>
      </trkpt>
      <trkpt lat="43.80236" lon="6.78139">
        <ele>1294.5</ele>
        <time>2011-06-15T08:29:03Z</time>
      </trkpt>
      <trkpt lat="43.80236" lon="6.78139">
        <ele>1294.199951</ele>
        <time>2011-06-15T08:29:04Z</time>
      </trkpt>
      <trkpt lat="43.80227" lon="6.78137">
        <ele>1293.699951</ele>
        <time>2011-06-15T08:32:48Z</time>
      </trkpt>
      <trkpt lat="43.80239" lon="6.78151">
        <ele>1295</ele>
        <time>2011-06-15T08:33:51Z</time>
      </trkpt>
      <trkpt lat="43.8024" lon="6.78153">
        <ele>1295.099976</ele>
        <time>2011-06-15T08:33:52Z</time>
      </trkpt>
      <trkpt lat="43.80245" lon="6.78174">
        <ele>1297</ele>
        <time>2011-06-15T08:34:12Z</time>
      </trkpt>
      <trkpt lat="43.80247" lon="6.78186">
        <ele>1297.900024</ele>
        <time>2011-06-15T08:34:22Z</time>
      </trkpt>
      <trkpt lat="43.8025" lon="6.78197">
        <ele>1299.099976</ele>
        <time>2011-06-15T08:34:32Z</time>
      </trkpt>
      <trkpt lat="43.80249" lon="6.78208">
        <ele>1300.5</ele>
        <time>2011-06-15T08:34:44Z</time>
      </trkpt>
      <trkpt lat="43.8025" lon="6.7822">
        <ele>1301.699951</ele>
        <time>2011-06-15T08:34:54Z</time>
      </trkpt>
      <trkpt lat="43.8025" lon="6.78221">
        <ele>1301.900024</ele>
        <time>2011-06-15T08:34:55Z</time>
      </trkpt>
      <trkpt lat="43.80252" lon="6.78244">
        <ele>1304.599976</ele>
        <time>2011-06-15T08:35:15Z</time>
      </trkpt>
      <trkpt lat="43.80254" lon="6.78255">
        <ele>1306.400024</ele>
        <time>2011-06-15T08:35:25Z</time>
      </trkpt>
      <trkpt lat="43.8026" lon="6.78264">
        <ele>1308.400024</ele>
        <time>2011-06-15T08:35:37Z</time>
      </trkpt>
      <trkpt lat="43.80269" lon="6.78268">
        <ele>1310</ele>
        <time>2011-06-15T08:35:48Z</time>
      </trkpt>
      <trkpt lat="43.80278" lon="6.78266">
        <ele>1311.099976</ele>
        <time>2011-06-15T08:35:58Z</time>
      </trkpt>
      <trkpt lat="43.80278" lon="6.78266">
        <ele>1311.099976</ele>
        <time>2011-06-15T08:35:59Z</time>
      </trkpt>
      <trkpt lat="43.80293" lon="6.78257">
        <ele>1312.099976</ele>
        <time>2011-06-15T08:36:14Z</time>
      </trkpt>
      <trkpt lat="43.80301" lon="6.78258">
        <ele>1312.400024</ele>
        <time>2011-06-15T08:36:21Z</time>
      </trkpt>
      <trkpt lat="43.8031" lon="6.78262">
        <ele>1312.400024</ele>
        <time>2011-06-15T08:36:29Z</time>
      </trkpt>
      <trkpt lat="43.80316" lon="6.78271">
        <ele>1312.5</ele>
        <time>2011-06-15T08:36:41Z</time>
      </trkpt>
      <trkpt lat="43.80319" lon="6.78283">
        <ele>1312.900024</ele>
        <time>2011-06-15T08:36:50Z</time>
      </trkpt>
      <trkpt lat="43.80323" lon="6.78293">
        <ele>1313.699951</ele>
        <time>2011-06-15T08:36:58Z</time>
      </trkpt>
      <trkpt lat="43.80326" lon="6.78304">
        <ele>1313.800049</ele>
        <time>2011-06-15T08:37:06Z</time>
      </trkpt>
      <trkpt lat="43.80326" lon="6.78305">
        <ele>1314</ele>
        <time>2011-06-15T08:37:07Z</time>
      </trkpt>
      <trkpt lat="43.80327" lon="6.78328">
        <ele>1315.5</ele>
        <time>2011-06-15T08:37:25Z</time>
      </trkpt>
      <trkpt lat="43.80327" lon="6.78339">
        <ele>1315.900024</ele>
        <time>2011-06-15T08:37:33Z</time>
      </trkpt>
      <trkpt lat="43.80328" lon="6.78352">
        <ele>1317.099976</ele>
        <time>2011-06-15T08:37:41Z</time>
      </trkpt>
      <trkpt lat="43.8033" lon="6.78364">
        <ele>1318.199951</ele>
        <time>2011-06-15T08:37:50Z</time>
      </trkpt>
      <trkpt lat="43.80331" lon="6.78376">
        <ele>1318.599976</ele>
        <time>2011-06-15T08:37:57Z</time>
      </trkpt>
      <trkpt lat="43.80333" lon="6.78387">
        <ele>1319.400024</ele>
        <time>2011-06-15T08:38:04Z</time>
      </trkpt>
      <trkpt lat="43.80336" lon="6.78398">
        <ele>1320.300049</ele>
        <time>2011-06-15T08:38:14Z</time>
      </trkpt>
      <trkpt lat="43.80337" lon="6.78399">
        <ele>1320.400024</ele>
        <time>2011-06-15T08:38:15Z</time>
      </trkpt>
      <trkpt lat="43.80349" lon="6.78413">
        <ele>1322.800049</ele>
        <time>2011-06-15T08:38:33Z</time>
      </trkpt>
      <trkpt lat="43.80356" lon="6.78419">
        <ele>1324.199951</ele>
        <time>2011-06-15T08:38:41Z</time>
      </trkpt>
      <trkpt lat="43.80363" lon="6.78425">
        <ele>1325.5</ele>
        <time>2011-06-15T08:38:51Z</time>
      </trkpt>
      <trkpt lat="43.80372" lon="6.78428">
        <ele>1325.800049</ele>
        <time>2011-06-15T08:38:58Z</time>
      </trkpt>
      <trkpt lat="43.80379" lon="6.78425">
        <ele>1326.099976</ele>
        <time>2011-06-15T08:39:05Z</time>
      </trkpt>
      <trkpt lat="43.80386" lon="6.78416">
        <ele>1325.5</ele>
        <time>2011-06-15T08:39:14Z</time>
      </trkpt>
      <trkpt lat="43.80392" lon="6.78409">
        <ele>1326</ele>
        <time>2011-06-15T08:39:21Z</time>
      </trkpt>
      <trkpt lat="43.80393" lon="6.78408">
        <ele>1326.199951</ele>
        <time>2011-06-15T08:39:22Z</time>
      </trkpt>
      <trkpt lat="43.80408" lon="6.78403">
        <ele>1326.300049</ele>
        <time>2011-06-15T08:39:37Z</time>
      </trkpt>
      <trkpt lat="43.80416" lon="6.78402">
        <ele>1326</ele>
        <time>2011-06-15T08:39:46Z</time>
      </trkpt>
      <trkpt lat="43.80424" lon="6.78398">
        <ele>1326.099976</ele>
        <time>2011-06-15T08:39:54Z</time>
      </trkpt>
      <trkpt lat="43.80433" lon="6.78394">
        <ele>1326.400024</ele>
        <time>2011-06-15T08:40:02Z</time>
      </trkpt>
      <trkpt lat="43.80441" lon="6.78393">
        <ele>1326.599976</ele>
        <time>2011-06-15T08:40:13Z</time>
      </trkpt>
      <trkpt lat="43.8045" lon="6.78396">
        <ele>1327.300049</ele>
        <time>2011-06-15T08:40:24Z</time>
      </trkpt>
      <trkpt lat="43.80451" lon="6.78396">
        <ele>1327.099976</ele>
        <time>2011-06-15T08:40:25Z</time>
      </trkpt>
      <trkpt lat="43.80466" lon="6.784">
        <ele>1327.800049</ele>
        <time>2011-06-15T08:40:40Z</time>
      </trkpt>
      <trkpt lat="43.80474" lon="6.78401">
        <ele>1328.800049</ele>
        <time>2011-06-15T08:40:49Z</time>
      </trkpt>
      <trkpt lat="43.80483" lon="6.78404">
        <ele>1330.199951</ele>
        <time>2011-06-15T08:40:57Z</time>
      </trkpt>
      <trkpt lat="43.80489" lon="6.78412">
        <ele>1330.900024</ele>
        <time>2011-06-15T08:41:05Z</time>
      </trkpt>
      <trkpt lat="43.80494" lon="6.78423">
        <ele>1331.300049</ele>
        <time>2011-06-15T08:41:13Z</time>
      </trkpt>
      <trkpt lat="43.80496" lon="6.78433">
        <ele>1332.199951</ele>
        <time>2011-06-15T08:41:20Z</time>
      </trkpt>
      <trkpt lat="43.80499" lon="6.78444">
        <ele>1331.599976</ele>
        <time>2011-06-15T08:41:27Z</time>
      </trkpt>
      <trkpt lat="43.80499" lon="6.78445">
        <ele>1331.599976</ele>
        <time>2011-06-15T08:41:28Z</time>
      </trkpt>
      <trkpt lat="43.80506" lon="6.78465">
        <ele>1333.199951</ele>
        <time>2011-06-15T08:41:44Z</time>
      </trkpt>
      <trkpt lat="43.80513" lon="6.78472">
        <ele>1334.199951</ele>
        <time>2011-06-15T08:41:52Z</time>
      </trkpt>
      <trkpt lat="43.8052" lon="6.78479">
        <ele>1335.099976</ele>
        <time>2011-06-15T08:42:02Z</time>
      </trkpt>
      <trkpt lat="43.80526" lon="6.78487">
        <ele>1336.099976</ele>
        <time>2011-06-15T08:42:10Z</time>
      </trkpt>
      <trkpt lat="43.8053" lon="6.78499">
        <ele>1337.199951</ele>
        <time>2011-06-15T08:42:19Z</time>
      </trkpt>
      <trkpt lat="43.80532" lon="6.7851">
        <ele>1337.800049</ele>
        <time>2011-06-15T08:42:28Z</time>
      </trkpt>
      <trkpt lat="43.80533" lon="6.78511">
        <ele>1337.900024</ele>
        <time>2011-06-15T08:42:29Z</time>
      </trkpt>
      <trkpt lat="43.80543" lon="6.78529">
        <ele>1341.099976</ele>
        <time>2011-06-15T08:42:53Z</time>
      </trkpt>
      <trkpt lat="43.80547" lon="6.78539">
        <ele>1341.900024</ele>
        <time>2011-06-15T08:43:03Z</time>
      </trkpt>
      <trkpt lat="43.80549" lon="6.78551">
        <ele>1343.599976</ele>
        <time>2011-06-15T08:43:17Z</time>
      </trkpt>
      <trkpt lat="43.80553" lon="6.78561">
        <ele>1344.400024</ele>
        <time>2011-06-15T08:43:28Z</time>
      </trkpt>
      <trkpt lat="43.80556" lon="6.78572">
        <ele>1345.400024</ele>
        <time>2011-06-15T08:43:38Z</time>
      </trkpt>
      <trkpt lat="43.80557" lon="6.78573">
        <ele>1345.300049</ele>
        <time>2011-06-15T08:43:39Z</time>
      </trkpt>
      <trkpt lat="43.80562" lon="6.78594">
        <ele>1347</ele>
        <time>2011-06-15T08:43:57Z</time>
      </trkpt>
      <trkpt lat="43.80564" lon="6.78606">
        <ele>1347.5</ele>
        <time>2011-06-15T08:44:07Z</time>
      </trkpt>
      <trkpt lat="43.80567" lon="6.78617">
        <ele>1348.900024</ele>
        <time>2011-06-15T08:44:17Z</time>
      </trkpt>
      <trkpt lat="43.80568" lon="6.78629">
        <ele>1350.599976</ele>
        <time>2011-06-15T08:44:28Z</time>
      </trkpt>
      <trkpt lat="43.80571" lon="6.7864">
        <ele>1351.699951</ele>
        <time>2011-06-15T08:44:38Z</time>
      </trkpt>
      <trkpt lat="43.80571" lon="6.78652">
        <ele>1351.900024</ele>
        <time>2011-06-15T08:44:47Z</time>
      </trkpt>
      <trkpt lat="43.80571" lon="6.78653">
        <ele>1352.099976</ele>
        <time>2011-06-15T08:44:48Z</time>
      </trkpt>
      <trkpt lat="43.80569" lon="6.78675">
        <ele>1352.599976</ele>
        <time>2011-06-15T08:45:04Z</time>
      </trkpt>
      <trkpt lat="43.80568" lon="6.78686">
        <ele>1352.300049</ele>
        <time>2011-06-15T08:45:12Z</time>
      </trkpt>
      <trkpt lat="43.80566" lon="6.78698">
        <ele>1353.199951</ele>
        <time>2011-06-15T08:45:23Z</time>
      </trkpt>
      <trkpt lat="43.80562" lon="6.78709">
        <ele>1353.900024</ele>
        <time>2011-06-15T08:45:35Z</time>
      </trkpt>
      <trkpt lat="43.8056" lon="6.78721">
        <ele>1354.599976</ele>
        <time>2011-06-15T08:45:45Z</time>
      </trkpt>
      <trkpt lat="43.80559" lon="6.78733">
        <ele>1355.800049</ele>
        <time>2011-06-15T08:45:55Z</time>
      </trkpt>
      <trkpt lat="43.80559" lon="6.78734">
        <ele>1355.900024</ele>
        <time>2011-06-15T08:45:56Z</time>
      </trkpt>
      <trkpt lat="43.80557" lon="6.78756">
        <ele>1357.599976</ele>
        <time>2011-06-15T08:46:15Z</time>
      </trkpt>
      <trkpt lat="43.80555" lon="6.78767">
        <ele>1356.900024</ele>
        <time>2011-06-15T08:46:24Z</time>
      </trkpt>
      <trkpt lat="43.80553" lon="6.78779">
        <ele>1356.099976</ele>
        <time>2011-06-15T08:46:38Z</time>
      </trkpt>
      <trkpt lat="43.80556" lon="6.7879">
        <ele>1358.199951</ele>
        <time>2011-06-15T08:47:09Z</time>
      </trkpt>
      <trkpt lat="43.80556" lon="6.7879">
        <ele>1358.300049</ele>
        <time>2011-06-15T08:47:10Z</time>
      </trkpt>
      <trkpt lat="43.80557" lon="6.78814">
        <ele>1362</ele>
        <time>2011-06-15T08:47:44Z</time>
      </trkpt>
      <trkpt lat="43.80559" lon="6.78826">
        <ele>1364.199951</ele>
        <time>2011-06-15T08:48:07Z</time>
      </trkpt>
      <trkpt lat="43.80567" lon="6.78831">
        <ele>1367.699951</ele>
        <time>2011-06-15T08:48:34Z</time>
      </trkpt>
      <trkpt lat="43.80567" lon="6.78831">
        <ele>1367.699951</ele>
        <time>2011-06-15T08:48:35Z</time>
      </trkpt>
      <trkpt lat="43.8058" lon="6.78837">
        <ele>1373.5</ele>
        <time>2011-06-15T08:49:31Z</time>
      </trkpt>
      <trkpt lat="43.8058" lon="6.78849">
        <ele>1374</ele>
        <time>2011-06-15T08:49:55Z</time>
      </trkpt>
      <trkpt lat="43.8058" lon="6.7885">
        <ele>1374</ele>
        <time>2011-06-15T08:49:56Z</time>
      </trkpt>
      <trkpt lat="43.80583" lon="6.78872">
        <ele>1377</ele>
        <time>2011-06-15T08:50:33Z</time>
      </trkpt>
      <trkpt lat="43.80583" lon="6.78884">
        <ele>1376.5</ele>
        <time>2011-06-15T08:50:50Z</time>
      </trkpt>
      <trkpt lat="43.80583" lon="6.78896">
        <ele>1378.099976</ele>
        <time>2011-06-15T08:51:09Z</time>
      </trkpt>
      <trkpt lat="43.80583" lon="6.78897">
        <ele>1378</ele>
        <time>2011-06-15T08:51:10Z</time>
      </trkpt>
      <trkpt lat="43.80584" lon="6.78919">
        <ele>1381.699951</ele>
        <time>2011-06-15T08:51:58Z</time>
      </trkpt>
      <trkpt lat="43.8059" lon="6.78928">
        <ele>1386.199951</ele>
        <time>2011-06-15T08:54:13Z</time>
      </trkpt>
      <trkpt lat="43.8059" lon="6.78928">
        <ele>1386.5</ele>
        <time>2011-06-15T08:54:14Z</time>
      </trkpt>
      <trkpt lat="43.80599" lon="6.78924">
        <ele>1392.5</ele>
        <time>2011-06-15T08:55:24Z</time>
      </trkpt>
      <trkpt lat="43.80612" lon="6.78908">
        <ele>1401.099976</ele>
        <time>2011-06-15T08:56:33Z</time>
      </trkpt>
      <trkpt lat="43.80612" lon="6.78908">
        <ele>1401.199951</ele>
        <time>2011-06-15T08:56:34Z</time>
      </trkpt>
      <trkpt lat="43.80627" lon="6.78895">
        <ele>1407.300049</ele>
        <time>2011-06-15T08:58:00Z</time>
      </trkpt>
      <trkpt lat="43.80627" lon="6.78895">
        <ele>1407.5</ele>
        <time>2011-06-15T08:58:01Z</time>
      </trkpt>
      <trkpt lat="43.80637" lon="6.78913">
        <ele>1417.699951</ele>
        <time>2011-06-15T08:59:27Z</time>
      </trkpt>
      <trkpt lat="43.80637" lon="6.78914">
        <ele>1417.900024</ele>
        <time>2011-06-15T08:59:28Z</time>
      </trkpt>
      <trkpt lat="43.80651" lon="6.78928">
        <ele>1420.800049</ele>
        <time>2011-06-15T09:01:16Z</time>
      </trkpt>
      <trkpt lat="43.80651" lon="6.78929">
        <ele>1420.900024</ele>
        <time>2011-06-15T09:01:17Z</time>
      </trkpt>
      <trkpt lat="43.80657" lon="6.7895">
        <ele>1431.599976</ele>
        <time>2011-06-15T09:02:47Z</time>
      </trkpt>
      <trkpt lat="43.80657" lon="6.78951">
        <ele>1431.900024</ele>
        <time>2011-06-15T09:02:48Z</time>
      </trkpt>
      <trkpt lat="43.8067" lon="6.78966">
        <ele>1436.699951</ele>
        <time>2011-06-15T09:06:31Z</time>
      </trkpt>
      <trkpt lat="43.8067" lon="6.78966">
        <ele>1436.900024</ele>
        <time>2011-06-15T09:06:32Z</time>
      </trkpt>
      <trkpt lat="43.80686" lon="6.7896">
        <ele>1441</ele>
        <time>2011-06-15T09:07:14Z</time>
      </trkpt>
      <trkpt lat="43.80695" lon="6.78961">
        <ele>1444.900024</ele>
        <time>2011-06-15T09:07:50Z</time>
      </trkpt>
      <trkpt lat="43.80695" lon="6.78961">
        <ele>1444.900024</ele>
        <time>2011-06-15T09:07:51Z</time>
      </trkpt>
      <trkpt lat="43.80711" lon="6.7895">
        <ele>1452.900024</ele>
        <time>2011-06-15T09:08:53Z</time>
      </trkpt>
      <trkpt lat="43.80711" lon="6.7895">
        <ele>1453.099976</ele>
        <time>2011-06-15T09:08:54Z</time>
      </trkpt>
      <trkpt lat="43.8072" lon="6.7893">
        <ele>1455.5</ele>
        <time>2011-06-15T09:09:33Z</time>
      </trkpt>
      <trkpt lat="43.80725" lon="6.7892">
        <ele>1458.099976</ele>
        <time>2011-06-15T09:09:57Z</time>
      </trkpt>
      <trkpt lat="43.80725" lon="6.7892">
        <ele>1458.300049</ele>
        <time>2011-06-15T09:09:58Z</time>
      </trkpt>
      <trkpt lat="43.80729" lon="6.78898">
        <ele>1461.400024</ele>
        <time>2011-06-15T09:10:38Z</time>
      </trkpt>
      <trkpt lat="43.80732" lon="6.78886">
        <ele>1463.400024</ele>
        <time>2011-06-15T09:10:58Z</time>
      </trkpt>
      <trkpt lat="43.80732" lon="6.78886">
        <ele>1463.300049</ele>
        <time>2011-06-15T09:10:59Z</time>
      </trkpt>
      <trkpt lat="43.80738" lon="6.78865">
        <ele>1464.800049</ele>
        <time>2011-06-15T09:11:39Z</time>
      </trkpt>
      <trkpt lat="43.80738" lon="6.78852">
        <ele>1467.099976</ele>
        <time>2011-06-15T09:12:07Z</time>
      </trkpt>
      <trkpt lat="43.80738" lon="6.78852">
        <ele>1467.199951</ele>
        <time>2011-06-15T09:12:08Z</time>
      </trkpt>
      <trkpt lat="43.80743" lon="6.78841">
        <ele>1468.199951</ele>
        <time>2011-06-15T09:13:11Z</time>
      </trkpt>
      <trkpt lat="43.80755" lon="6.78824">
        <ele>1472.099976</ele>
        <time>2011-06-15T09:14:16Z</time>
      </trkpt>
      <trkpt lat="43.80755" lon="6.78824">
        <ele>1471.800049</ele>
        <time>2011-06-15T09:14:17Z</time>
      </trkpt>
      <trkpt lat="43.80756" lon="6.788">
        <ele>1469.900024</ele>
        <time>2011-06-15T09:14:59Z</time>
      </trkpt>
      <trkpt lat="43.80757" lon="6.78788">
        <ele>1470.099976</ele>
        <time>2011-06-15T09:15:12Z</time>
      </trkpt>
      <trkpt lat="43.80756" lon="6.78776">
        <ele>1469.900024</ele>
        <time>2011-06-15T09:15:31Z</time>
      </trkpt>
      <trkpt lat="43.80756" lon="6.78774">
        <ele>1469.900024</ele>
        <time>2011-06-15T09:15:32Z</time>
      </trkpt>
      <trkpt lat="43.80759" lon="6.78752">
        <ele>1472.199951</ele>
        <time>2011-06-15T09:16:07Z</time>
      </trkpt>
      <trkpt lat="43.80762" lon="6.78741">
        <ele>1473.400024</ele>
        <time>2011-06-15T09:16:27Z</time>
      </trkpt>
      <trkpt lat="43.80765" lon="6.7873">
        <ele>1474.599976</ele>
        <time>2011-06-15T09:16:43Z</time>
      </trkpt>
      <trkpt lat="43.80766" lon="6.78729">
        <ele>1474.800049</ele>
        <time>2011-06-15T09:16:44Z</time>
      </trkpt>
      <trkpt lat="43.80773" lon="6.78709">
        <ele>1477.900024</ele>
        <time>2011-06-15T09:17:32Z</time>
      </trkpt>
      <trkpt lat="43.80777" lon="6.78698">
        <ele>1482.099976</ele>
        <time>2011-06-15T09:18:21Z</time>
      </trkpt>
      <trkpt lat="43.80778" lon="6.78698">
        <ele>1482.199951</ele>
        <time>2011-06-15T09:18:22Z</time>
      </trkpt>
      <trkpt lat="43.80786" lon="6.78677">
        <ele>1485.199951</ele>
        <time>2011-06-15T09:19:10Z</time>
      </trkpt>
      <trkpt lat="43.80788" lon="6.78665">
        <ele>1485.199951</ele>
        <time>2011-06-15T09:19:32Z</time>
      </trkpt>
      <trkpt lat="43.80788" lon="6.78665">
        <ele>1485</ele>
        <time>2011-06-15T09:19:33Z</time>
      </trkpt>
      <trkpt lat="43.8079" lon="6.78642">
        <ele>1487.400024</ele>
        <time>2011-06-15T09:20:39Z</time>
      </trkpt>
      <trkpt lat="43.80789" lon="6.78641">
        <ele>1487.400024</ele>
        <time>2011-06-15T09:20:40Z</time>
      </trkpt>
      <trkpt lat="43.8079" lon="6.78621">
        <ele>1485.400024</ele>
        <time>2011-06-15T09:22:00Z</time>
      </trkpt>
      <trkpt lat="43.80791" lon="6.78621">
        <ele>1485.599976</ele>
        <time>2011-06-15T09:22:01Z</time>
      </trkpt>
      <trkpt lat="43.80788" lon="6.78608">
        <ele>1489.300049</ele>
        <time>2011-06-15T09:23:05Z</time>
      </trkpt>
      <trkpt lat="43.808" lon="6.7859">
        <ele>1484.199951</ele>
        <time>2011-06-15T09:26:41Z</time>
      </trkpt>
      <trkpt lat="43.808" lon="6.7859">
        <ele>1484.099976</ele>
        <time>2011-06-15T09:26:42Z</time>
      </trkpt>
      <trkpt lat="43.80789" lon="6.78572">
        <ele>1478.800049</ele>
        <time>2011-06-15T09:28:23Z</time>
      </trkpt>
      <trkpt lat="43.80789" lon="6.78571">
        <ele>1478.800049</ele>
        <time>2011-06-15T09:28:24Z</time>
      </trkpt>
      <trkpt lat="43.80785" lon="6.78549">
        <ele>1480.5</ele>
        <time>2011-06-15T09:29:49Z</time>
      </trkpt>
      <trkpt lat="43.80785" lon="6.78548">
        <ele>1480.599976</ele>
        <time>2011-06-15T09:29:50Z</time>
      </trkpt>
      <trkpt lat="43.80785" lon="6.78525">
        <ele>1481.400024</ele>
        <time>2011-06-15T09:30:43Z</time>
      </trkpt>
      <trkpt lat="43.80785" lon="6.78512">
        <ele>1480.300049</ele>
        <time>2011-06-15T09:31:28Z</time>
      </trkpt>
      <trkpt lat="43.80784" lon="6.78512">
        <ele>1480.5</ele>
        <time>2011-06-15T09:31:29Z</time>
      </trkpt>
      <trkpt lat="43.80783" lon="6.78488">
        <ele>1481.099976</ele>
        <time>2011-06-15T09:32:51Z</time>
      </trkpt>
      <trkpt lat="43.80783" lon="6.78488">
        <ele>1481.199951</ele>
        <time>2011-06-15T09:32:52Z</time>
      </trkpt>
      <trkpt lat="43.80784" lon="6.78501">
        <ele>1481.300049</ele>
        <time>2011-06-15T09:40:20Z</time>
      </trkpt>
      <trkpt lat="43.80788" lon="6.78524">
        <ele>1481.400024</ele>
        <time>2011-06-15T09:41:20Z</time>
      </trkpt>
      <trkpt lat="43.80788" lon="6.78525">
        <ele>1481.400024</ele>
        <time>2011-06-15T09:41:21Z</time>
      </trkpt>
      <trkpt lat="43.80782" lon="6.78545">
        <ele>1481.099976</ele>
        <time>2011-06-15T09:42:21Z</time>
      </trkpt>
      <trkpt lat="43.80782" lon="6.78546">
        <ele>1481</ele>
        <time>2011-06-15T09:42:22Z</time>
      </trkpt>
      <trkpt lat="43.8079" lon="6.78566">
        <ele>1479.599976</ele>
        <time>2011-06-15T09:42:53Z</time>
      </trkpt>
      <trkpt lat="43.80793" lon="6.78577">
        <ele>1481.5</ele>
        <time>2011-06-15T09:43:12Z</time>
      </trkpt>
      <trkpt lat="43.80795" lon="6.78589">
        <ele>1484.599976</ele>
        <time>2011-06-15T09:43:40Z</time>
      </trkpt>
      <trkpt lat="43.80795" lon="6.78589">
        <ele>1484.400024</ele>
        <time>2011-06-15T09:43:41Z</time>
      </trkpt>
      <trkpt lat="43.80788" lon="6.78601">
        <ele>1490.199951</ele>
        <time>2011-06-15T09:45:23Z</time>
      </trkpt>
      <trkpt lat="43.80788" lon="6.78601">
        <ele>1490.300049</ele>
        <time>2011-06-15T09:45:24Z</time>
      </trkpt>
      <trkpt lat="43.8079" lon="6.78623">
        <ele>1485</ele>
        <time>2011-06-15T09:47:02Z</time>
      </trkpt>
      <trkpt lat="43.80791" lon="6.78623">
        <ele>1484.699951</ele>
        <time>2011-06-15T09:47:03Z</time>
      </trkpt>
      <trkpt lat="43.80783" lon="6.78642">
        <ele>1486.099976</ele>
        <time>2011-06-15T09:48:00Z</time>
      </trkpt>
      <trkpt lat="43.80775" lon="6.78646">
        <ele>1485.099976</ele>
        <time>2011-06-15T09:48:23Z</time>
      </trkpt>
      <trkpt lat="43.80774" lon="6.78646">
        <ele>1485.099976</ele>
        <time>2011-06-15T09:48:24Z</time>
      </trkpt>
      <trkpt lat="43.80766" lon="6.78661">
        <ele>1483.900024</ele>
        <time>2011-06-15T09:48:46Z</time>
      </trkpt>
      <trkpt lat="43.80771" lon="6.78671">
        <ele>1483.699951</ele>
        <time>2011-06-15T09:48:53Z</time>
      </trkpt>
      <trkpt lat="43.80775" lon="6.78682">
        <ele>1483.900024</ele>
        <time>2011-06-15T09:49:03Z</time>
      </trkpt>
      <trkpt lat="43.80776" lon="6.78694">
        <ele>1482</ele>
        <time>2011-06-15T09:49:20Z</time>
      </trkpt>
      <trkpt lat="43.80776" lon="6.78706">
        <ele>1480.5</ele>
        <time>2011-06-15T09:49:41Z</time>
      </trkpt>
      <trkpt lat="43.80776" lon="6.78707">
        <ele>1480.300049</ele>
        <time>2011-06-15T09:49:42Z</time>
      </trkpt>
      <trkpt lat="43.80768" lon="6.78727">
        <ele>1473.300049</ele>
        <time>2011-06-15T09:50:39Z</time>
      </trkpt>
      <trkpt lat="43.8077" lon="6.78738">
        <ele>1472.800049</ele>
        <time>2011-06-15T09:54:55Z</time>
      </trkpt>
      <trkpt lat="43.8077" lon="6.78739">
        <ele>1472.800049</ele>
        <time>2011-06-15T09:54:56Z</time>
      </trkpt>
      <trkpt lat="43.80765" lon="6.78748">
        <ele>1473.5</ele>
        <time>2011-06-15T09:56:31Z</time>
      </trkpt>
      <trkpt lat="43.80757" lon="6.78768">
        <ele>1469.5</ele>
        <time>2011-06-15T09:57:17Z</time>
      </trkpt>
      <trkpt lat="43.80759" lon="6.7878">
        <ele>1469.400024</ele>
        <time>2011-06-15T09:57:35Z</time>
      </trkpt>
      <trkpt lat="43.80759" lon="6.78781">
        <ele>1469.199951</ele>
        <time>2011-06-15T09:57:36Z</time>
      </trkpt>
      <trkpt lat="43.80758" lon="6.78805">
        <ele>1469.400024</ele>
        <time>2011-06-15T09:58:13Z</time>
      </trkpt>
      <trkpt lat="43.80757" lon="6.78817">
        <ele>1470.300049</ele>
        <time>2011-06-15T09:58:35Z</time>
      </trkpt>
      <trkpt lat="43.80756" lon="6.78829">
        <ele>1470.800049</ele>
        <time>2011-06-15T09:59:10Z</time>
      </trkpt>
      <trkpt lat="43.80756" lon="6.7883">
        <ele>1470.800049</ele>
        <time>2011-06-15T09:59:11Z</time>
      </trkpt>
      <trkpt lat="43.8074" lon="6.7884">
        <ele>1465.699951</ele>
        <time>2011-06-15T09:59:55Z</time>
      </trkpt>
      <trkpt lat="43.80737" lon="6.78851">
        <ele>1463.5</ele>
        <time>2011-06-15T10:00:11Z</time>
      </trkpt>
      <trkpt lat="43.80737" lon="6.78852">
        <ele>1463.5</ele>
        <time>2011-06-15T10:00:12Z</time>
      </trkpt>
      <trkpt lat="43.80735" lon="6.78874">
        <ele>1461.400024</ele>
        <time>2011-06-15T10:00:35Z</time>
      </trkpt>
      <trkpt lat="43.8073" lon="6.78883">
        <ele>1459.900024</ele>
        <time>2011-06-15T10:00:50Z</time>
      </trkpt>
      <trkpt lat="43.8073" lon="6.78895">
        <ele>1458.699951</ele>
        <time>2011-06-15T10:01:00Z</time>
      </trkpt>
      <trkpt lat="43.8073" lon="6.78907">
        <ele>1457.699951</ele>
        <time>2011-06-15T10:01:18Z</time>
      </trkpt>
      <trkpt lat="43.80729" lon="6.78908">
        <ele>1457.699951</ele>
        <time>2011-06-15T10:01:19Z</time>
      </trkpt>
      <trkpt lat="43.8072" lon="6.78927">
        <ele>1452.900024</ele>
        <time>2011-06-15T10:02:04Z</time>
      </trkpt>
      <trkpt lat="43.80717" lon="6.78938">
        <ele>1451.900024</ele>
        <time>2011-06-15T10:02:18Z</time>
      </trkpt>
      <trkpt lat="43.80713" lon="6.78949">
        <ele>1448.900024</ele>
        <time>2011-06-15T10:02:38Z</time>
      </trkpt>
      <trkpt lat="43.80713" lon="6.7895">
        <ele>1448.800049</ele>
        <time>2011-06-15T10:02:39Z</time>
      </trkpt>
      <trkpt lat="43.807" lon="6.78961">
        <ele>1441.5</ele>
        <time>2011-06-15T10:04:02Z</time>
      </trkpt>
      <trkpt lat="43.80699" lon="6.78961">
        <ele>1441.400024</ele>
        <time>2011-06-15T10:04:03Z</time>
      </trkpt>
      <trkpt lat="43.80683" lon="6.78964">
        <ele>1435</ele>
        <time>2011-06-15T10:04:38Z</time>
      </trkpt>
      <trkpt lat="43.80675" lon="6.78965">
        <ele>1433.5</ele>
        <time>2011-06-15T10:04:59Z</time>
      </trkpt>
      <trkpt lat="43.80666" lon="6.78962">
        <ele>1430.300049</ele>
        <time>2011-06-15T10:05:28Z</time>
      </trkpt>
      <trkpt lat="43.80666" lon="6.78961">
        <ele>1430.400024</ele>
        <time>2011-06-15T10:05:29Z</time>
      </trkpt>
      <trkpt lat="43.80654" lon="6.78944">
        <ele>1424.900024</ele>
        <time>2011-06-15T10:06:22Z</time>
      </trkpt>
      <trkpt lat="43.80648" lon="6.78935">
        <ele>1421.800049</ele>
        <time>2011-06-15T10:06:42Z</time>
      </trkpt>
      <trkpt lat="43.80648" lon="6.78934">
        <ele>1421.900024</ele>
        <time>2011-06-15T10:06:43Z</time>
      </trkpt>
      <trkpt lat="43.80641" lon="6.78914">
        <ele>1413.199951</ele>
        <time>2011-06-15T10:07:26Z</time>
      </trkpt>
      <trkpt lat="43.80637" lon="6.78904">
        <ele>1409.900024</ele>
        <time>2011-06-15T10:07:42Z</time>
      </trkpt>
      <trkpt lat="43.80634" lon="6.78892">
        <ele>1405.699951</ele>
        <time>2011-06-15T10:07:59Z</time>
      </trkpt>
      <trkpt lat="43.80634" lon="6.78892">
        <ele>1405.599976</ele>
        <time>2011-06-15T10:08:00Z</time>
      </trkpt>
      <trkpt lat="43.8063" lon="6.7887">
        <ele>1399.400024</ele>
        <time>2011-06-15T10:08:45Z</time>
      </trkpt>
      <trkpt lat="43.80624" lon="6.78861">
        <ele>1397.300049</ele>
        <time>2011-06-15T10:09:15Z</time>
      </trkpt>
      <trkpt lat="43.80623" lon="6.78861">
        <ele>1397.300049</ele>
        <time>2011-06-15T10:09:16Z</time>
      </trkpt>
      <trkpt lat="43.80616" lon="6.78882">
        <ele>1399.300049</ele>
        <time>2011-06-15T10:09:52Z</time>
      </trkpt>
      <trkpt lat="43.80615" lon="6.78895">
        <ele>1399.699951</ele>
        <time>2011-06-15T10:10:07Z</time>
      </trkpt>
      <trkpt lat="43.80613" lon="6.78906">
        <ele>1398</ele>
        <time>2011-06-15T10:10:29Z</time>
      </trkpt>
      <trkpt lat="43.80613" lon="6.78907">
        <ele>1397.599976</ele>
        <time>2011-06-15T10:10:30Z</time>
      </trkpt>
      <trkpt lat="43.80603" lon="6.78926">
        <ele>1391.400024</ele>
        <time>2011-06-15T10:11:30Z</time>
      </trkpt>
      <trkpt lat="43.80603" lon="6.78926">
        <ele>1391.400024</ele>
        <time>2011-06-15T10:11:31Z</time>
      </trkpt>
      <trkpt lat="43.80586" lon="6.78932">
        <ele>1379.300049</ele>
        <time>2011-06-15T10:13:31Z</time>
      </trkpt>
      <trkpt lat="43.80585" lon="6.78931">
        <ele>1379.199951</ele>
        <time>2011-06-15T10:13:32Z</time>
      </trkpt>
      <trkpt lat="43.80577" lon="6.78913">
        <ele>1372.5</ele>
        <time>2011-06-15T10:15:15Z</time>
      </trkpt>
      <trkpt lat="43.80577" lon="6.78912">
        <ele>1372.400024</ele>
        <time>2011-06-15T10:15:16Z</time>
      </trkpt>
      <trkpt lat="43.80579" lon="6.7889">
        <ele>1372.300049</ele>
        <time>2011-06-15T10:15:50Z</time>
      </trkpt>
      <trkpt lat="43.80581" lon="6.78878">
        <ele>1372.400024</ele>
        <time>2011-06-15T10:16:09Z</time>
      </trkpt>
      <trkpt lat="43.8058" lon="6.78867">
        <ele>1371.800049</ele>
        <time>2011-06-15T10:16:35Z</time>
      </trkpt>
      <trkpt lat="43.8058" lon="6.78866">
        <ele>1371.800049</ele>
        <time>2011-06-15T10:16:36Z</time>
      </trkpt>
      <trkpt lat="43.80579" lon="6.78843">
        <ele>1371.099976</ele>
        <time>2011-06-15T10:16:56Z</time>
      </trkpt>
      <trkpt lat="43.80571" lon="6.78837">
        <ele>1367.099976</ele>
        <time>2011-06-15T10:17:50Z</time>
      </trkpt>
      <trkpt lat="43.80571" lon="6.78837">
        <ele>1366.699951</ele>
        <time>2011-06-15T10:17:51Z</time>
      </trkpt>
      <trkpt lat="43.80559" lon="6.78819">
        <ele>1359.699951</ele>
        <time>2011-06-15T10:18:40Z</time>
      </trkpt>
      <trkpt lat="43.80558" lon="6.78807">
        <ele>1359.800049</ele>
        <time>2011-06-15T10:20:56Z</time>
      </trkpt>
      <trkpt lat="43.80558" lon="6.78806">
        <ele>1360</ele>
        <time>2011-06-15T10:20:57Z</time>
      </trkpt>
      <trkpt lat="43.80554" lon="6.78784">
        <ele>1356.800049</ele>
        <time>2011-06-15T10:21:39Z</time>
      </trkpt>
      <trkpt lat="43.80551" lon="6.78773">
        <ele>1354.5</ele>
        <time>2011-06-15T10:22:06Z</time>
      </trkpt>
      <trkpt lat="43.80551" lon="6.78773">
        <ele>1354.5</ele>
        <time>2011-06-15T10:22:07Z</time>
      </trkpt>
      <trkpt lat="43.80536" lon="6.7877">
        <ele>1347.300049</ele>
        <time>2011-06-15T10:23:10Z</time>
      </trkpt>
      <trkpt lat="43.80535" lon="6.7877">
        <ele>1347.099976</ele>
        <time>2011-06-15T10:23:11Z</time>
      </trkpt>
      <trkpt lat="43.80519" lon="6.78764">
        <ele>1339.699951</ele>
        <time>2011-06-15T10:25:13Z</time>
      </trkpt>
      <trkpt lat="43.80519" lon="6.78764">
        <ele>1339.900024</ele>
        <time>2011-06-15T10:25:14Z</time>
      </trkpt>
      <trkpt lat="43.80508" lon="6.78747">
        <ele>1333.099976</ele>
        <time>2011-06-15T10:25:47Z</time>
      </trkpt>
      <trkpt lat="43.80502" lon="6.78739">
        <ele>1331.300049</ele>
        <time>2011-06-15T10:25:57Z</time>
      </trkpt>
      <trkpt lat="43.80493" lon="6.78735">
        <ele>1330</ele>
        <time>2011-06-15T10:26:10Z</time>
      </trkpt>
      <trkpt lat="43.80485" lon="6.78732">
        <ele>1328.199951</ele>
        <time>2011-06-15T10:26:32Z</time>
      </trkpt>
      <trkpt lat="43.80484" lon="6.78732">
        <ele>1328.099976</ele>
        <time>2011-06-15T10:26:33Z</time>
      </trkpt>
      <trkpt lat="43.80469" lon="6.78737">
        <ele>1326.300049</ele>
        <time>2011-06-15T10:27:23Z</time>
      </trkpt>
      <trkpt lat="43.80466" lon="6.78726">
        <ele>1325.5</ele>
        <time>2011-06-15T10:28:36Z</time>
      </trkpt>
      <trkpt lat="43.80466" lon="6.78725">
        <ele>1325.5</ele>
        <time>2011-06-15T10:28:37Z</time>
      </trkpt>
      <trkpt lat="43.80466" lon="6.78702">
        <ele>1325</ele>
        <time>2011-06-15T10:28:56Z</time>
      </trkpt>
      <trkpt lat="43.80467" lon="6.7869">
        <ele>1325</ele>
        <time>2011-06-15T10:29:05Z</time>
      </trkpt>
      <trkpt lat="43.80469" lon="6.7868">
        <ele>1324.300049</ele>
        <time>2011-06-15T10:29:13Z</time>
      </trkpt>
      <trkpt lat="43.80471" lon="6.78668">
        <ele>1323.599976</ele>
        <time>2011-06-15T10:29:21Z</time>
      </trkpt>
      <trkpt lat="43.80473" lon="6.78657">
        <ele>1323.099976</ele>
        <time>2011-06-15T10:29:29Z</time>
      </trkpt>
      <trkpt lat="43.80477" lon="6.78647">
        <ele>1322.099976</ele>
        <time>2011-06-15T10:29:37Z</time>
      </trkpt>
      <trkpt lat="43.80477" lon="6.78646">
        <ele>1322.099976</ele>
        <time>2011-06-15T10:29:38Z</time>
      </trkpt>
      <trkpt lat="43.80482" lon="6.78625">
        <ele>1321</ele>
        <time>2011-06-15T10:29:52Z</time>
      </trkpt>
      <trkpt lat="43.80481" lon="6.78613">
        <ele>1319.599976</ele>
        <time>2011-06-15T10:30:00Z</time>
      </trkpt>
      <trkpt lat="43.80476" lon="6.78604">
        <ele>1318.900024</ele>
        <time>2011-06-15T10:30:10Z</time>
      </trkpt>
      <trkpt lat="43.80474" lon="6.78594">
        <ele>1317.300049</ele>
        <time>2011-06-15T10:30:18Z</time>
      </trkpt>
      <trkpt lat="43.8047" lon="6.78583">
        <ele>1317.099976</ele>
        <time>2011-06-15T10:30:27Z</time>
      </trkpt>
      <trkpt lat="43.80468" lon="6.78573">
        <ele>1316.5</ele>
        <time>2011-06-15T10:30:35Z</time>
      </trkpt>
      <trkpt lat="43.80464" lon="6.78563">
        <ele>1315.900024</ele>
        <time>2011-06-15T10:30:43Z</time>
      </trkpt>
      <trkpt lat="43.80463" lon="6.78561">
        <ele>1316.099976</ele>
        <time>2011-06-15T10:30:44Z</time>
      </trkpt>
      <trkpt lat="43.80451" lon="6.78546">
        <ele>1315.599976</ele>
        <time>2011-06-15T10:30:59Z</time>
      </trkpt>
      <trkpt lat="43.80445" lon="6.78538">
        <ele>1315.699951</ele>
        <time>2011-06-15T10:31:07Z</time>
      </trkpt>
      <trkpt lat="43.80441" lon="6.78528">
        <ele>1316.099976</ele>
        <time>2011-06-15T10:31:13Z</time>
      </trkpt>
      <trkpt lat="43.80436" lon="6.78518">
        <ele>1316.800049</ele>
        <time>2011-06-15T10:31:20Z</time>
      </trkpt>
      <trkpt lat="43.80431" lon="6.78508">
        <ele>1316.900024</ele>
        <time>2011-06-15T10:31:30Z</time>
      </trkpt>
      <trkpt lat="43.80426" lon="6.78498">
        <ele>1317.199951</ele>
        <time>2011-06-15T10:31:39Z</time>
      </trkpt>
      <trkpt lat="43.8042" lon="6.78491">
        <ele>1317.900024</ele>
        <time>2011-06-15T10:31:48Z</time>
      </trkpt>
      <trkpt lat="43.80419" lon="6.78491">
        <ele>1317.900024</ele>
        <time>2011-06-15T10:31:49Z</time>
      </trkpt>
      <trkpt lat="43.80411" lon="6.78471">
        <ele>1319.199951</ele>
        <time>2011-06-15T10:32:07Z</time>
      </trkpt>
      <trkpt lat="43.80406" lon="6.78462">
        <ele>1320.099976</ele>
        <time>2011-06-15T10:32:17Z</time>
      </trkpt>
      <trkpt lat="43.80398" lon="6.78457">
        <ele>1320.400024</ele>
        <time>2011-06-15T10:32:24Z</time>
      </trkpt>
      <trkpt lat="43.80392" lon="6.78449">
        <ele>1320.800049</ele>
        <time>2011-06-15T10:32:32Z</time>
      </trkpt>
      <trkpt lat="43.80385" lon="6.78441">
        <ele>1321</ele>
        <time>2011-06-15T10:32:45Z</time>
      </trkpt>
      <trkpt lat="43.80377" lon="6.78439">
        <ele>1321.199951</ele>
        <time>2011-06-15T10:32:52Z</time>
      </trkpt>
      <trkpt lat="43.80376" lon="6.78438">
        <ele>1320.699951</ele>
        <time>2011-06-15T10:32:53Z</time>
      </trkpt>
      <trkpt lat="43.80361" lon="6.78431">
        <ele>1319</ele>
        <time>2011-06-15T10:33:10Z</time>
      </trkpt>
      <trkpt lat="43.80353" lon="6.78425">
        <ele>1317.800049</ele>
        <time>2011-06-15T10:33:19Z</time>
      </trkpt>
      <trkpt lat="43.80347" lon="6.78418">
        <ele>1316.400024</ele>
        <time>2011-06-15T10:33:28Z</time>
      </trkpt>
      <trkpt lat="43.80343" lon="6.78407">
        <ele>1315.699951</ele>
        <time>2011-06-15T10:33:36Z</time>
      </trkpt>
      <trkpt lat="43.8034" lon="6.78396">
        <ele>1314.5</ele>
        <time>2011-06-15T10:33:43Z</time>
      </trkpt>
      <trkpt lat="43.80337" lon="6.78385">
        <ele>1313.599976</ele>
        <time>2011-06-15T10:33:51Z</time>
      </trkpt>
      <trkpt lat="43.80334" lon="6.78374">
        <ele>1312.699951</ele>
        <time>2011-06-15T10:33:58Z</time>
      </trkpt>
      <trkpt lat="43.80334" lon="6.78373">
        <ele>1312.599976</ele>
        <time>2011-06-15T10:33:59Z</time>
      </trkpt>
      <trkpt lat="43.80333" lon="6.78351">
        <ele>1311.400024</ele>
        <time>2011-06-15T10:34:15Z</time>
      </trkpt>
      <trkpt lat="43.80331" lon="6.7834">
        <ele>1310.900024</ele>
        <time>2011-06-15T10:34:22Z</time>
      </trkpt>
      <trkpt lat="43.80329" lon="6.78328">
        <ele>1310</ele>
        <time>2011-06-15T10:34:30Z</time>
      </trkpt>
      <trkpt lat="43.80328" lon="6.78316">
        <ele>1309.099976</ele>
        <time>2011-06-15T10:34:38Z</time>
      </trkpt>
      <trkpt lat="43.80326" lon="6.78304">
        <ele>1308.900024</ele>
        <time>2011-06-15T10:34:47Z</time>
      </trkpt>
      <trkpt lat="43.80325" lon="6.78293">
        <ele>1308</ele>
        <time>2011-06-15T10:34:54Z</time>
      </trkpt>
      <trkpt lat="43.8032" lon="6.78282">
        <ele>1307.800049</ele>
        <time>2011-06-15T10:35:02Z</time>
      </trkpt>
      <trkpt lat="43.8032" lon="6.78281">
        <ele>1308</ele>
        <time>2011-06-15T10:35:03Z</time>
      </trkpt>
      <trkpt lat="43.80309" lon="6.78267">
        <ele>1307.400024</ele>
        <time>2011-06-15T10:35:18Z</time>
      </trkpt>
      <trkpt lat="43.803" lon="6.78264">
        <ele>1307.400024</ele>
        <time>2011-06-15T10:35:25Z</time>
      </trkpt>
      <trkpt lat="43.80291" lon="6.78267">
        <ele>1307.400024</ele>
        <time>2011-06-15T10:35:33Z</time>
      </trkpt>
      <trkpt lat="43.80284" lon="6.78274">
        <ele>1306.900024</ele>
        <time>2011-06-15T10:35:41Z</time>
      </trkpt>
      <trkpt lat="43.80276" lon="6.78278">
        <ele>1305.599976</ele>
        <time>2011-06-15T10:35:50Z</time>
      </trkpt>
      <trkpt lat="43.80268" lon="6.78276">
        <ele>1304.400024</ele>
        <time>2011-06-15T10:35:57Z</time>
      </trkpt>
      <trkpt lat="43.80261" lon="6.7827">
        <ele>1302.5</ele>
        <time>2011-06-15T10:36:08Z</time>
      </trkpt>
      <trkpt lat="43.80261" lon="6.78269">
        <ele>1302.300049</ele>
        <time>2011-06-15T10:36:09Z</time>
      </trkpt>
      <trkpt lat="43.80257" lon="6.78248">
        <ele>1299.699951</ele>
        <time>2011-06-15T10:36:27Z</time>
      </trkpt>
      <trkpt lat="43.80255" lon="6.78237">
        <ele>1299.199951</ele>
        <time>2011-06-15T10:36:35Z</time>
      </trkpt>
      <trkpt lat="43.80252" lon="6.78226">
        <ele>1298</ele>
        <time>2011-06-15T10:36:43Z</time>
      </trkpt>
      <trkpt lat="43.8025" lon="6.78215">
        <ele>1296.800049</ele>
        <time>2011-06-15T10:36:52Z</time>
      </trkpt>
      <trkpt lat="43.80249" lon="6.78203">
        <ele>1295.699951</ele>
        <time>2011-06-15T10:37:00Z</time>
      </trkpt>
      <trkpt lat="43.80246" lon="6.78191">
        <ele>1294.900024</ele>
        <time>2011-06-15T10:37:09Z</time>
      </trkpt>
      <trkpt lat="43.80243" lon="6.78181">
        <ele>1293.800049</ele>
        <time>2011-06-15T10:37:17Z</time>
      </trkpt>
      <trkpt lat="43.80243" lon="6.78179">
        <ele>1293.800049</ele>
        <time>2011-06-15T10:37:18Z</time>
      </trkpt>
      <trkpt lat="43.80239" lon="6.78159">
        <ele>1292.699951</ele>
        <time>2011-06-15T10:37:30Z</time>
      </trkpt>
      <trkpt lat="43.80238" lon="6.78148">
        <ele>1291.699951</ele>
        <time>2011-06-15T10:37:38Z</time>
      </trkpt>
      <trkpt lat="43.80235" lon="6.78137">
        <ele>1291</ele>
        <time>2011-06-15T10:37:46Z</time>
      </trkpt>
      <trkpt lat="43.80231" lon="6.78127">
        <ele>1290.5</ele>
        <time>2011-06-15T10:37:54Z</time>
      </trkpt>
      <trkpt lat="43.80226" lon="6.78116">
        <ele>1290.099976</ele>
        <time>2011-06-15T10:38:02Z</time>
      </trkpt>
      <trkpt lat="43.80222" lon="6.78105">
        <ele>1289.099976</ele>
        <time>2011-06-15T10:38:10Z</time>
      </trkpt>
      <trkpt lat="43.80218" lon="6.78094">
        <ele>1288.099976</ele>
        <time>2011-06-15T10:38:18Z</time>
      </trkpt>
      <trkpt lat="43.80218" lon="6.78092">
        <ele>1288</ele>
        <time>2011-06-15T10:38:19Z</time>
      </trkpt>
      <trkpt lat="43.80214" lon="6.78071">
        <ele>1286.5</ele>
        <time>2011-06-15T10:38:32Z</time>
      </trkpt>
      <trkpt lat="43.80211" lon="6.78061">
        <ele>1285.300049</ele>
        <time>2011-06-15T10:38:41Z</time>
      </trkpt>
      <trkpt lat="43.80208" lon="6.7805">
        <ele>1285.099976</ele>
        <time>2011-06-15T10:38:48Z</time>
      </trkpt>
      <trkpt lat="43.80207" lon="6.78038">
        <ele>1283.800049</ele>
        <time>2011-06-15T10:38:55Z</time>
      </trkpt>
      <trkpt lat="43.80205" lon="6.78027">
        <ele>1283</ele>
        <time>2011-06-15T10:39:01Z</time>
      </trkpt>
      <trkpt lat="43.80202" lon="6.78015">
        <ele>1282.199951</ele>
        <time>2011-06-15T10:39:10Z</time>
      </trkpt>
      <trkpt lat="43.80199" lon="6.78005">
        <ele>1281.099976</ele>
        <time>2011-06-15T10:39:17Z</time>
      </trkpt>
      <trkpt lat="43.80196" lon="6.77993">
        <ele>1280.699951</ele>
        <time>2011-06-15T10:39:24Z</time>
      </trkpt>
      <trkpt lat="43.80196" lon="6.77991">
        <ele>1280.900024</ele>
        <time>2011-06-15T10:39:25Z</time>
      </trkpt>
      <trkpt lat="43.80191" lon="6.77971">
        <ele>1279.199951</ele>
        <time>2011-06-15T10:39:39Z</time>
      </trkpt>
      <trkpt lat="43.8019" lon="6.7796">
        <ele>1278.699951</ele>
        <time>2011-06-15T10:39:46Z</time>
      </trkpt>
      <trkpt lat="43.80188" lon="6.77949">
        <ele>1277.800049</ele>
        <time>2011-06-15T10:39:55Z</time>
      </trkpt>
      <trkpt lat="43.80186" lon="6.77937">
        <ele>1277</ele>
        <time>2011-06-15T10:40:03Z</time>
      </trkpt>
      <trkpt lat="43.80181" lon="6.77927">
        <ele>1275.699951</ele>
        <time>2011-06-15T10:40:14Z</time>
      </trkpt>
      <trkpt lat="43.8018" lon="6.77915">
        <ele>1274.400024</ele>
        <time>2011-06-15T10:40:24Z</time>
      </trkpt>
      <trkpt lat="43.80175" lon="6.77906">
        <ele>1273.599976</ele>
        <time>2011-06-15T10:40:33Z</time>
      </trkpt>
      <trkpt lat="43.80174" lon="6.77905">
        <ele>1273.599976</ele>
        <time>2011-06-15T10:40:34Z</time>
      </trkpt>
      <trkpt lat="43.8017" lon="6.77883">
        <ele>1272.300049</ele>
        <time>2011-06-15T10:40:48Z</time>
      </trkpt>
      <trkpt lat="43.80167" lon="6.77872">
        <ele>1271.099976</ele>
        <time>2011-06-15T10:40:56Z</time>
      </trkpt>
      <trkpt lat="43.80163" lon="6.77861">
        <ele>1270.400024</ele>
        <time>2011-06-15T10:41:04Z</time>
      </trkpt>
      <trkpt lat="43.80158" lon="6.77852">
        <ele>1269.800049</ele>
        <time>2011-06-15T10:41:13Z</time>
      </trkpt>
      <trkpt lat="43.80154" lon="6.77841">
        <ele>1268.900024</ele>
        <time>2011-06-15T10:41:22Z</time>
      </trkpt>
      <trkpt lat="43.80149" lon="6.77833">
        <ele>1267.099976</ele>
        <time>2011-06-15T10:41:30Z</time>
      </trkpt>
      <trkpt lat="43.80147" lon="6.77822">
        <ele>1265.599976</ele>
        <time>2011-06-15T10:41:38Z</time>
      </trkpt>
      <trkpt lat="43.80147" lon="6.7782">
        <ele>1265.599976</ele>
        <time>2011-06-15T10:41:39Z</time>
      </trkpt>
      <trkpt lat="43.8014" lon="6.77801">
        <ele>1263.5</ele>
        <time>2011-06-15T10:41:55Z</time>
      </trkpt>
      <trkpt lat="43.80135" lon="6.77791">
        <ele>1262.099976</ele>
        <time>2011-06-15T10:42:05Z</time>
      </trkpt>
      <trkpt lat="43.80128" lon="6.77786">
        <ele>1260.699951</ele>
        <time>2011-06-15T10:42:14Z</time>
      </trkpt>
      <trkpt lat="43.80121" lon="6.77781">
        <ele>1260.099976</ele>
        <time>2011-06-15T10:42:22Z</time>
      </trkpt>
      <trkpt lat="43.80114" lon="6.77773">
        <ele>1258.400024</ele>
        <time>2011-06-15T10:42:31Z</time>
      </trkpt>
      <trkpt lat="43.80106" lon="6.77768">
        <ele>1257.099976</ele>
        <time>2011-06-15T10:42:42Z</time>
      </trkpt>
      <trkpt lat="43.80105" lon="6.77767">
        <ele>1257</ele>
        <time>2011-06-15T10:42:43Z</time>
      </trkpt>
      <trkpt lat="43.80092" lon="6.77754">
        <ele>1255.300049</ele>
        <time>2011-06-15T10:42:59Z</time>
      </trkpt>
      <trkpt lat="43.80084" lon="6.77751">
        <ele>1254.099976</ele>
        <time>2011-06-15T10:43:08Z</time>
      </trkpt>
      <trkpt lat="43.80076" lon="6.77746">
        <ele>1253.099976</ele>
        <time>2011-06-15T10:43:16Z</time>
      </trkpt>
      <trkpt lat="43.8007" lon="6.7774">
        <ele>1252</ele>
        <time>2011-06-15T10:43:24Z</time>
      </trkpt>
      <trkpt lat="43.80062" lon="6.77735">
        <ele>1251.5</ele>
        <time>2011-06-15T10:43:32Z</time>
      </trkpt>
      <trkpt lat="43.80056" lon="6.77727">
        <ele>1250.599976</ele>
        <time>2011-06-15T10:43:39Z</time>
      </trkpt>
      <trkpt lat="43.80048" lon="6.77723">
        <ele>1249.900024</ele>
        <time>2011-06-15T10:43:46Z</time>
      </trkpt>
      <trkpt lat="43.80046" lon="6.77722">
        <ele>1249.599976</ele>
        <time>2011-06-15T10:43:47Z</time>
      </trkpt>
      <trkpt lat="43.80034" lon="6.77709">
        <ele>1247.900024</ele>
        <time>2011-06-15T10:43:59Z</time>
      </trkpt>
      <trkpt lat="43.80027" lon="6.77701">
        <ele>1246.599976</ele>
        <time>2011-06-15T10:44:07Z</time>
      </trkpt>
      <trkpt lat="43.80022" lon="6.77691">
        <ele>1246.099976</ele>
        <time>2011-06-15T10:44:15Z</time>
      </trkpt>
      <trkpt lat="43.80017" lon="6.77681">
        <ele>1245.599976</ele>
        <time>2011-06-15T10:44:22Z</time>
      </trkpt>
      <trkpt lat="43.80015" lon="6.77671">
        <ele>1244.599976</ele>
        <time>2011-06-15T10:44:29Z</time>
      </trkpt>
      <trkpt lat="43.8001" lon="6.77661">
        <ele>1243.5</ele>
        <time>2011-06-15T10:44:37Z</time>
      </trkpt>
      <trkpt lat="43.80007" lon="6.77651">
        <ele>1242.599976</ele>
        <time>2011-06-15T10:44:44Z</time>
      </trkpt>
      <trkpt lat="43.80002" lon="6.77641">
        <ele>1241.699951</ele>
        <time>2011-06-15T10:44:52Z</time>
      </trkpt>
      <trkpt lat="43.80002" lon="6.7764">
        <ele>1241.699951</ele>
        <time>2011-06-15T10:44:53Z</time>
      </trkpt>
      <trkpt lat="43.79992" lon="6.77624">
        <ele>1239.599976</ele>
        <time>2011-06-15T10:45:10Z</time>
      </trkpt>
      <trkpt lat="43.79988" lon="6.77614">
        <ele>1238.599976</ele>
        <time>2011-06-15T10:45:16Z</time>
      </trkpt>
      <trkpt lat="43.79984" lon="6.77604">
        <ele>1237.400024</ele>
        <time>2011-06-15T10:45:23Z</time>
      </trkpt>
      <trkpt lat="43.7998" lon="6.77594">
        <ele>1236.900024</ele>
        <time>2011-06-15T10:45:31Z</time>
      </trkpt>
      <trkpt lat="43.79975" lon="6.77584">
        <ele>1236</ele>
        <time>2011-06-15T10:45:40Z</time>
      </trkpt>
      <trkpt lat="43.79968" lon="6.77576">
        <ele>1234.5</ele>
        <time>2011-06-15T10:45:49Z</time>
      </trkpt>
      <trkpt lat="43.79962" lon="6.77569">
        <ele>1233.900024</ele>
        <time>2011-06-15T10:45:58Z</time>
      </trkpt>
      <trkpt lat="43.79961" lon="6.77568">
        <ele>1233.800049</ele>
        <time>2011-06-15T10:45:59Z</time>
      </trkpt>
      <trkpt lat="43.79949" lon="6.77555">
        <ele>1232.400024</ele>
        <time>2011-06-15T10:46:12Z</time>
      </trkpt>
      <trkpt lat="43.79944" lon="6.77545">
        <ele>1231.199951</ele>
        <time>2011-06-15T10:46:20Z</time>
      </trkpt>
      <trkpt lat="43.79936" lon="6.77541">
        <ele>1230.5</ele>
        <time>2011-06-15T10:46:28Z</time>
      </trkpt>
      <trkpt lat="43.79928" lon="6.77536">
        <ele>1229.699951</ele>
        <time>2011-06-15T10:46:35Z</time>
      </trkpt>
      <trkpt lat="43.7992" lon="6.7753">
        <ele>1228.900024</ele>
        <time>2011-06-15T10:46:43Z</time>
      </trkpt>
      <trkpt lat="43.79913" lon="6.77522">
        <ele>1228.5</ele>
        <time>2011-06-15T10:46:51Z</time>
      </trkpt>
      <trkpt lat="43.79907" lon="6.77514">
        <ele>1227.699951</ele>
        <time>2011-06-15T10:46:59Z</time>
      </trkpt>
      <trkpt lat="43.79901" lon="6.77507">
        <ele>1226.800049</ele>
        <time>2011-06-15T10:47:06Z</time>
      </trkpt>
      <trkpt lat="43.799" lon="6.77506">
        <ele>1226.699951</ele>
        <time>2011-06-15T10:47:07Z</time>
      </trkpt>
      <trkpt lat="43.79891" lon="6.77488">
        <ele>1225.199951</ele>
        <time>2011-06-15T10:47:19Z</time>
      </trkpt>
      <trkpt lat="43.79886" lon="6.77479">
        <ele>1225</ele>
        <time>2011-06-15T10:47:26Z</time>
      </trkpt>
      <trkpt lat="43.79881" lon="6.77468">
        <ele>1223.900024</ele>
        <time>2011-06-15T10:47:34Z</time>
      </trkpt>
      <trkpt lat="43.79875" lon="6.7746">
        <ele>1223.300049</ele>
        <time>2011-06-15T10:47:43Z</time>
      </trkpt>
      <trkpt lat="43.79872" lon="6.77449">
        <ele>1222.400024</ele>
        <time>2011-06-15T10:47:53Z</time>
      </trkpt>
      <trkpt lat="43.79867" lon="6.77441">
        <ele>1221.800049</ele>
        <time>2011-06-15T10:48:02Z</time>
      </trkpt>
      <trkpt lat="43.79863" lon="6.7743">
        <ele>1221.300049</ele>
        <time>2011-06-15T10:48:08Z</time>
      </trkpt>
      <trkpt lat="43.79862" lon="6.77429">
        <ele>1221.400024</ele>
        <time>2011-06-15T10:48:09Z</time>
      </trkpt>
      <trkpt lat="43.7985" lon="6.77418">
        <ele>1220.400024</ele>
        <time>2011-06-15T10:48:21Z</time>
      </trkpt>
      <trkpt lat="43.79844" lon="6.7741">
        <ele>1219.699951</ele>
        <time>2011-06-15T10:48:28Z</time>
      </trkpt>
      <trkpt lat="43.79838" lon="6.77402">
        <ele>1219.800049</ele>
        <time>2011-06-15T10:48:36Z</time>
      </trkpt>
      <trkpt lat="43.79831" lon="6.77394">
        <ele>1219.300049</ele>
        <time>2011-06-15T10:48:44Z</time>
      </trkpt>
      <trkpt lat="43.79828" lon="6.77384">
        <ele>1218.599976</ele>
        <time>2011-06-15T10:48:50Z</time>
      </trkpt>
      <trkpt lat="43.79825" lon="6.77374">
        <ele>1217.599976</ele>
        <time>2011-06-15T10:48:56Z</time>
      </trkpt>
      <trkpt lat="43.79819" lon="6.77368">
        <ele>1217.5</ele>
        <time>2011-06-15T10:49:01Z</time>
      </trkpt>
      <trkpt lat="43.79814" lon="6.77358">
        <ele>1217</ele>
        <time>2011-06-15T10:49:08Z</time>
      </trkpt>
      <trkpt lat="43.79809" lon="6.77347">
        <ele>1216.199951</ele>
        <time>2011-06-15T10:49:17Z</time>
      </trkpt>
      <trkpt lat="43.79809" lon="6.77347">
        <ele>1216</ele>
        <time>2011-06-15T10:49:18Z</time>
      </trkpt>
      <trkpt lat="43.79802" lon="6.77364">
        <ele>1214.400024</ele>
        <time>2011-06-15T10:49:38Z</time>
      </trkpt>
      <trkpt lat="43.79806" lon="6.77375">
        <ele>1213.199951</ele>
        <time>2011-06-15T10:49:47Z</time>
      </trkpt>
      <trkpt lat="43.7981" lon="6.77385">
        <ele>1212.5</ele>
        <time>2011-06-15T10:49:56Z</time>
      </trkpt>
      <trkpt lat="43.79813" lon="6.77396">
        <ele>1211.800049</ele>
        <time>2011-06-15T10:50:06Z</time>
      </trkpt>
      <trkpt lat="43.79816" lon="6.77408">
        <ele>1211</ele>
        <time>2011-06-15T10:50:15Z</time>
      </trkpt>
      <trkpt lat="43.79819" lon="6.77419">
        <ele>1211.099976</ele>
        <time>2011-06-15T10:50:24Z</time>
      </trkpt>
      <trkpt lat="43.79819" lon="6.7742">
        <ele>1211.300049</ele>
        <time>2011-06-15T10:50:25Z</time>
      </trkpt>
      <trkpt lat="43.79826" lon="6.77441">
        <ele>1209.900024</ele>
        <time>2011-06-15T10:50:41Z</time>
      </trkpt>
      <trkpt lat="43.79828" lon="6.77452">
        <ele>1208.699951</ele>
        <time>2011-06-15T10:50:50Z</time>
      </trkpt>
      <trkpt lat="43.79832" lon="6.77462">
        <ele>1207.900024</ele>
        <time>2011-06-15T10:50:58Z</time>
      </trkpt>
      <trkpt lat="43.79836" lon="6.77473">
        <ele>1207.5</ele>
        <time>2011-06-15T10:51:07Z</time>
      </trkpt>
      <trkpt lat="43.79841" lon="6.77483">
        <ele>1206.099976</ele>
        <time>2011-06-15T10:51:17Z</time>
      </trkpt>
      <trkpt lat="43.79845" lon="6.77493">
        <ele>1205</ele>
        <time>2011-06-15T10:51:25Z</time>
      </trkpt>
      <trkpt lat="43.79846" lon="6.77494">
        <ele>1205.199951</ele>
        <time>2011-06-15T10:51:26Z</time>
      </trkpt>
      <trkpt lat="43.79853" lon="6.77515">
        <ele>1203.699951</ele>
        <time>2011-06-15T10:51:42Z</time>
      </trkpt>
      <trkpt lat="43.79856" lon="6.77525">
        <ele>1203</ele>
        <time>2011-06-15T10:51:49Z</time>
      </trkpt>
      <trkpt lat="43.79859" lon="6.77536">
        <ele>1202.599976</ele>
        <time>2011-06-15T10:51:56Z</time>
      </trkpt>
      <trkpt lat="43.79864" lon="6.77546">
        <ele>1201.900024</ele>
        <time>2011-06-15T10:52:04Z</time>
      </trkpt>
      <trkpt lat="43.79868" lon="6.77555">
        <ele>1201.300049</ele>
        <time>2011-06-15T10:52:11Z</time>
      </trkpt>
      <trkpt lat="43.79872" lon="6.77566">
        <ele>1199.900024</ele>
        <time>2011-06-15T10:52:19Z</time>
      </trkpt>
      <trkpt lat="43.79876" lon="6.77576">
        <ele>1199.199951</ele>
        <time>2011-06-15T10:52:29Z</time>
      </trkpt>
      <trkpt lat="43.79877" lon="6.77578">
        <ele>1199.199951</ele>
        <time>2011-06-15T10:52:30Z</time>
      </trkpt>
      <trkpt lat="43.79881" lon="6.77598">
        <ele>1198.099976</ele>
        <time>2011-06-15T10:52:44Z</time>
      </trkpt>
      <trkpt lat="43.79883" lon="6.77609">
        <ele>1197.699951</ele>
        <time>2011-06-15T10:52:50Z</time>
      </trkpt>
      <trkpt lat="43.79885" lon="6.7762">
        <ele>1197.900024</ele>
        <time>2011-06-15T10:52:56Z</time>
      </trkpt>
      <trkpt lat="43.79885" lon="6.77631">
        <ele>1197.5</ele>
        <time>2011-06-15T10:53:03Z</time>
      </trkpt>
      <trkpt lat="43.79886" lon="6.77643">
        <ele>1196.900024</ele>
        <time>2011-06-15T10:53:10Z</time>
      </trkpt>
      <trkpt lat="43.79885" lon="6.77654">
        <ele>1196.599976</ele>
        <time>2011-06-15T10:53:17Z</time>
      </trkpt>
      <trkpt lat="43.79886" lon="6.77667">
        <ele>1196.199951</ele>
        <time>2011-06-15T10:53:25Z</time>
      </trkpt>
      <trkpt lat="43.79886" lon="6.77678">
        <ele>1195.599976</ele>
        <time>2011-06-15T10:53:32Z</time>
      </trkpt>
      <trkpt lat="43.79886" lon="6.77679">
        <ele>1195.599976</ele>
        <time>2011-06-15T10:53:33Z</time>
      </trkpt>
      <trkpt lat="43.79888" lon="6.77702">
        <ele>1194.300049</ele>
        <time>2011-06-15T10:53:47Z</time>
      </trkpt>
      <trkpt lat="43.79889" lon="6.77714">
        <ele>1193.800049</ele>
        <time>2011-06-15T10:53:54Z</time>
      </trkpt>
      <trkpt lat="43.79889" lon="6.77725">
        <ele>1193.400024</ele>
        <time>2011-06-15T10:54:01Z</time>
      </trkpt>
      <trkpt lat="43.79888" lon="6.77737">
        <ele>1192.699951</ele>
        <time>2011-06-15T10:54:08Z</time>
      </trkpt>
      <trkpt lat="43.79889" lon="6.77749">
        <ele>1192.400024</ele>
        <time>2011-06-15T10:54:16Z</time>
      </trkpt>
      <trkpt lat="43.7989" lon="6.7776">
        <ele>1191.599976</ele>
        <time>2011-06-15T10:54:23Z</time>
      </trkpt>
      <trkpt lat="43.79892" lon="6.77771">
        <ele>1190.800049</ele>
        <time>2011-06-15T10:54:30Z</time>
      </trkpt>
      <trkpt lat="43.79895" lon="6.77781">
        <ele>1189.900024</ele>
        <time>2011-06-15T10:54:37Z</time>
      </trkpt>
      <trkpt lat="43.79895" lon="6.77783">
        <ele>1189.699951</ele>
        <time>2011-06-15T10:54:38Z</time>
      </trkpt>
      <trkpt lat="43.79899" lon="6.77804">
        <ele>1188.599976</ele>
        <time>2011-06-15T10:54:52Z</time>
      </trkpt>
      <trkpt lat="43.79901" lon="6.77815">
        <ele>1187.400024</ele>
        <time>2011-06-15T10:54:59Z</time>
      </trkpt>
      <trkpt lat="43.79904" lon="6.77826">
        <ele>1187</ele>
        <time>2011-06-15T10:55:07Z</time>
      </trkpt>
      <trkpt lat="43.79906" lon="6.77837">
        <ele>1186.400024</ele>
        <time>2011-06-15T10:55:15Z</time>
      </trkpt>
      <trkpt lat="43.79908" lon="6.77849">
        <ele>1186</ele>
        <time>2011-06-15T10:55:23Z</time>
      </trkpt>
      <trkpt lat="43.79911" lon="6.77859">
        <ele>1185.199951</ele>
        <time>2011-06-15T10:55:31Z</time>
      </trkpt>
      <trkpt lat="43.79912" lon="6.77871">
        <ele>1185.199951</ele>
        <time>2011-06-15T10:55:39Z</time>
      </trkpt>
      <trkpt lat="43.79912" lon="6.77872">
        <ele>1185.199951</ele>
        <time>2011-06-15T10:55:40Z</time>
      </trkpt>
      <trkpt lat="43.79914" lon="6.77894">
        <ele>1184.800049</ele>
        <time>2011-06-15T10:55:53Z</time>
      </trkpt>
      <trkpt lat="43.79915" lon="6.77905">
        <ele>1184.800049</ele>
        <time>2011-06-15T10:55:59Z</time>
      </trkpt>
      <trkpt lat="43.79916" lon="6.77916">
        <ele>1184.400024</ele>
        <time>2011-06-15T10:56:05Z</time>
      </trkpt>
      <trkpt lat="43.79918" lon="6.77927">
        <ele>1184.400024</ele>
        <time>2011-06-15T10:56:12Z</time>
      </trkpt>
      <trkpt lat="43.79919" lon="6.77939">
        <ele>1183.599976</ele>
        <time>2011-06-15T10:56:19Z</time>
      </trkpt>
      <trkpt lat="43.79922" lon="6.7795">
        <ele>1183.300049</ele>
        <time>2011-06-15T10:56:26Z</time>
      </trkpt>
      <trkpt lat="43.79924" lon="6.77961">
        <ele>1182.800049</ele>
        <time>2011-06-15T10:56:33Z</time>
      </trkpt>
      <trkpt lat="43.79926" lon="6.77971">
        <ele>1182.400024</ele>
        <time>2011-06-15T10:56:40Z</time>
      </trkpt>
      <trkpt lat="43.79927" lon="6.77973">
        <ele>1182.400024</ele>
        <time>2011-06-15T10:56:41Z</time>
      </trkpt>
      <trkpt lat="43.79933" lon="6.77993">
        <ele>1181.300049</ele>
        <time>2011-06-15T10:57:00Z</time>
      </trkpt>
      <trkpt lat="43.79934" lon="6.78004">
        <ele>1181</ele>
        <time>2011-06-15T10:57:32Z</time>
      </trkpt>
      <trkpt lat="43.79936" lon="6.78015">
        <ele>1180.900024</ele>
        <time>2011-06-15T10:57:40Z</time>
      </trkpt>
      <trkpt lat="43.79937" lon="6.78026">
        <ele>1181.199951</ele>
        <time>2011-06-15T10:57:47Z</time>
      </trkpt>
      <trkpt lat="43.79937" lon="6.78028">
        <ele>1180.900024</ele>
        <time>2011-06-15T10:57:48Z</time>
      </trkpt>
      <trkpt lat="43.79935" lon="6.78049">
        <ele>1180.800049</ele>
        <time>2011-06-15T10:58:02Z</time>
      </trkpt>
      <trkpt lat="43.79934" lon="6.78061">
        <ele>1181.099976</ele>
        <time>2011-06-15T10:58:09Z</time>
      </trkpt>
      <trkpt lat="43.79933" lon="6.78072">
        <ele>1180.800049</ele>
        <time>2011-06-15T10:58:16Z</time>
      </trkpt>
      <trkpt lat="43.79932" lon="6.78084">
        <ele>1180.699951</ele>
        <time>2011-06-15T10:58:24Z</time>
      </trkpt>
      <trkpt lat="43.79931" lon="6.78095">
        <ele>1180.699951</ele>
        <time>2011-06-15T10:58:32Z</time>
      </trkpt>
      <trkpt lat="43.79928" lon="6.78106">
        <ele>1180.300049</ele>
        <time>2011-06-15T10:58:39Z</time>
      </trkpt>
      <trkpt lat="43.79926" lon="6.78118">
        <ele>1180</ele>
        <time>2011-06-15T10:58:48Z</time>
      </trkpt>
      <trkpt lat="43.79926" lon="6.7812">
        <ele>1179.800049</ele>
        <time>2011-06-15T10:58:49Z</time>
      </trkpt>
      <trkpt lat="43.79923" lon="6.78139">
        <ele>1179.300049</ele>
        <time>2011-06-15T10:59:03Z</time>
      </trkpt>
      <trkpt lat="43.79923" lon="6.78151">
        <ele>1179</ele>
        <time>2011-06-15T10:59:09Z</time>
      </trkpt>
      <trkpt lat="43.79922" lon="6.78162">
        <ele>1178.800049</ele>
        <time>2011-06-15T10:59:15Z</time>
      </trkpt>
      <trkpt lat="43.7992" lon="6.78174">
        <ele>1178.5</ele>
        <time>2011-06-15T10:59:22Z</time>
      </trkpt>
      <trkpt lat="43.79918" lon="6.78186">
        <ele>1177.900024</ele>
        <time>2011-06-15T10:59:31Z</time>
      </trkpt>
      <trkpt lat="43.79916" lon="6.78197">
        <ele>1177.5</ele>
        <time>2011-06-15T10:59:39Z</time>
      </trkpt>
      <trkpt lat="43.79914" lon="6.78209">
        <ele>1177.599976</ele>
        <time>2011-06-15T10:59:46Z</time>
      </trkpt>
      <trkpt lat="43.79913" lon="6.7822">
        <ele>1177.800049</ele>
        <time>2011-06-15T10:59:54Z</time>
      </trkpt>
      <trkpt lat="43.79912" lon="6.78221">
        <ele>1177.800049</ele>
        <time>2011-06-15T10:59:55Z</time>
      </trkpt>
      <trkpt lat="43.79912" lon="6.78242">
        <ele>1177.599976</ele>
        <time>2011-06-15T11:00:07Z</time>
      </trkpt>
      <trkpt lat="43.79914" lon="6.78253">
        <ele>1176.599976</ele>
        <time>2011-06-15T11:00:14Z</time>
      </trkpt>
      <trkpt lat="43.79914" lon="6.78265">
        <ele>1176.300049</ele>
        <time>2011-06-15T11:00:22Z</time>
      </trkpt>
      <trkpt lat="43.79912" lon="6.78277">
        <ele>1176.800049</ele>
        <time>2011-06-15T11:00:30Z</time>
      </trkpt>
      <trkpt lat="43.79912" lon="6.78287">
        <ele>1177.199951</ele>
        <time>2011-06-15T11:00:36Z</time>
      </trkpt>
      <trkpt lat="43.79912" lon="6.78299">
        <ele>1176.800049</ele>
        <time>2011-06-15T11:00:43Z</time>
      </trkpt>
      <trkpt lat="43.7991" lon="6.7831">
        <ele>1176.900024</ele>
        <time>2011-06-15T11:00:51Z</time>
      </trkpt>
      <trkpt lat="43.79908" lon="6.78322">
        <ele>1176.699951</ele>
        <time>2011-06-15T11:00:58Z</time>
      </trkpt>
      <trkpt lat="43.79908" lon="6.78323">
        <ele>1176.800049</ele>
        <time>2011-06-15T11:00:59Z</time>
      </trkpt>
      <trkpt lat="43.79909" lon="6.78344">
        <ele>1176.5</ele>
        <time>2011-06-15T11:01:12Z</time>
      </trkpt>
      <trkpt lat="43.7991" lon="6.78355">
        <ele>1175.800049</ele>
        <time>2011-06-15T11:01:19Z</time>
      </trkpt>
      <trkpt lat="43.79909" lon="6.78367">
        <ele>1175.699951</ele>
        <time>2011-06-15T11:01:27Z</time>
      </trkpt>
      <trkpt lat="43.79906" lon="6.78378">
        <ele>1176</ele>
        <time>2011-06-15T11:01:35Z</time>
      </trkpt>
      <trkpt lat="43.79905" lon="6.78388">
        <ele>1175.800049</ele>
        <time>2011-06-15T11:01:42Z</time>
      </trkpt>
      <trkpt lat="43.79905" lon="6.784">
        <ele>1175.699951</ele>
        <time>2011-06-15T11:01:48Z</time>
      </trkpt>
      <trkpt lat="43.79906" lon="6.78411">
        <ele>1175.400024</ele>
        <time>2011-06-15T11:01:55Z</time>
      </trkpt>
      <trkpt lat="43.79907" lon="6.78423">
        <ele>1174.900024</ele>
        <time>2011-06-15T11:02:02Z</time>
      </trkpt>
      <trkpt lat="43.79908" lon="6.78424">
        <ele>1174.900024</ele>
        <time>2011-06-15T11:02:03Z</time>
      </trkpt>
      <trkpt lat="43.79914" lon="6.78444">
        <ele>1173.599976</ele>
        <time>2011-06-15T11:02:17Z</time>
      </trkpt>
      <trkpt lat="43.79918" lon="6.78456">
        <ele>1173</ele>
        <time>2011-06-15T11:02:25Z</time>
      </trkpt>
      <trkpt lat="43.7992" lon="6.78467">
        <ele>1172.599976</ele>
        <time>2011-06-15T11:02:33Z</time>
      </trkpt>
      <trkpt lat="43.79922" lon="6.78479">
        <ele>1172.300049</ele>
        <time>2011-06-15T11:02:41Z</time>
      </trkpt>
      <trkpt lat="43.79924" lon="6.78491">
        <ele>1172.300049</ele>
        <time>2011-06-15T11:02:49Z</time>
      </trkpt>
      <trkpt lat="43.79927" lon="6.78502">
        <ele>1171.900024</ele>
        <time>2011-06-15T11:02:55Z</time>
      </trkpt>
      <trkpt lat="43.79928" lon="6.78514">
        <ele>1171.800049</ele>
        <time>2011-06-15T11:03:02Z</time>
      </trkpt>
      <trkpt lat="43.79929" lon="6.78525">
        <ele>1171.300049</ele>
        <time>2011-06-15T11:03:09Z</time>
      </trkpt>
      <trkpt lat="43.79928" lon="6.78527">
        <ele>1171</ele>
        <time>2011-06-15T11:03:10Z</time>
      </trkpt>
      <trkpt lat="43.79922" lon="6.78548">
        <ele>1169.5</ele>
        <time>2011-06-15T11:03:27Z</time>
      </trkpt>
      <trkpt lat="43.79918" lon="6.78559">
        <ele>1169</ele>
        <time>2011-06-15T11:03:35Z</time>
      </trkpt>
      <trkpt lat="43.79916" lon="6.78569">
        <ele>1168.5</ele>
        <time>2011-06-15T11:03:43Z</time>
      </trkpt>
      <trkpt lat="43.79915" lon="6.78582">
        <ele>1167.699951</ele>
        <time>2011-06-15T11:03:51Z</time>
      </trkpt>
      <trkpt lat="43.79916" lon="6.78594">
        <ele>1167.400024</ele>
        <time>2011-06-15T11:03:59Z</time>
      </trkpt>
      <trkpt lat="43.79915" lon="6.78604">
        <ele>1166.900024</ele>
        <time>2011-06-15T11:04:06Z</time>
      </trkpt>
      <trkpt lat="43.79915" lon="6.78616">
        <ele>1166.800049</ele>
        <time>2011-06-15T11:04:13Z</time>
      </trkpt>
      <trkpt lat="43.79915" lon="6.78617">
        <ele>1166.5</ele>
        <time>2011-06-15T11:04:14Z</time>
      </trkpt>
      <trkpt lat="43.79916" lon="6.7864">
        <ele>1166.400024</ele>
        <time>2011-06-15T11:04:28Z</time>
      </trkpt>
      <trkpt lat="43.79918" lon="6.78651">
        <ele>1165.900024</ele>
        <time>2011-06-15T11:04:36Z</time>
      </trkpt>
      <trkpt lat="43.79918" lon="6.78663">
        <ele>1165.900024</ele>
        <time>2011-06-15T11:04:44Z</time>
      </trkpt>
      <trkpt lat="43.79919" lon="6.78675">
        <ele>1166.099976</ele>
        <time>2011-06-15T11:04:54Z</time>
      </trkpt>
      <trkpt lat="43.79919" lon="6.78687">
        <ele>1166</ele>
        <time>2011-06-15T11:05:04Z</time>
      </trkpt>
      <trkpt lat="43.79922" lon="6.78697">
        <ele>1166.800049</ele>
        <time>2011-06-15T11:05:10Z</time>
      </trkpt>
      <trkpt lat="43.79925" lon="6.78707">
        <ele>1166.599976</ele>
        <time>2011-06-15T11:05:16Z</time>
      </trkpt>
      <trkpt lat="43.79925" lon="6.78709">
        <ele>1166.800049</ele>
        <time>2011-06-15T11:05:17Z</time>
      </trkpt>
      <trkpt lat="43.79933" lon="6.78728">
        <ele>1167.199951</ele>
        <time>2011-06-15T11:05:39Z</time>
      </trkpt>
      <trkpt lat="43.79933" lon="6.78739">
        <ele>1167.599976</ele>
        <time>2011-06-15T11:05:50Z</time>
      </trkpt>
      <trkpt lat="43.79936" lon="6.7875">
        <ele>1167.699951</ele>
        <time>2011-06-15T11:05:58Z</time>
      </trkpt>
      <trkpt lat="43.79936" lon="6.78762">
        <ele>1167.5</ele>
        <time>2011-06-15T11:06:08Z</time>
      </trkpt>
      <trkpt lat="43.79933" lon="6.78772">
        <ele>1167.800049</ele>
        <time>2011-06-15T11:06:16Z</time>
      </trkpt>
      <trkpt lat="43.79933" lon="6.78784">
        <ele>1167.800049</ele>
        <time>2011-06-15T11:06:22Z</time>
      </trkpt>
      <trkpt lat="43.79933" lon="6.78786">
        <ele>1167.800049</ele>
        <time>2011-06-15T11:06:23Z</time>
      </trkpt>
      <trkpt lat="43.79938" lon="6.78805">
        <ele>1167.5</ele>
        <time>2011-06-15T11:06:32Z</time>
      </trkpt>
      <trkpt lat="43.79939" lon="6.78817">
        <ele>1167.300049</ele>
        <time>2011-06-15T11:06:39Z</time>
      </trkpt>
      <trkpt lat="43.79941" lon="6.78829">
        <ele>1166.900024</ele>
        <time>2011-06-15T11:06:52Z</time>
      </trkpt>
      <trkpt lat="43.79941" lon="6.78841">
        <ele>1166.099976</ele>
        <time>2011-06-15T11:07:00Z</time>
      </trkpt>
      <trkpt lat="43.7994" lon="6.78853">
        <ele>1165.699951</ele>
        <time>2011-06-15T11:07:09Z</time>
      </trkpt>
      <trkpt lat="43.7994" lon="6.78866">
        <ele>1164.599976</ele>
        <time>2011-06-15T11:07:16Z</time>
      </trkpt>
      <trkpt lat="43.79938" lon="6.78877">
        <ele>1163.699951</ele>
        <time>2011-06-15T11:07:23Z</time>
      </trkpt>
      <trkpt lat="43.79938" lon="6.78878">
        <ele>1163.599976</ele>
        <time>2011-06-15T11:07:24Z</time>
      </trkpt>
      <trkpt lat="43.79933" lon="6.78899">
        <ele>1161.599976</ele>
        <time>2011-06-15T11:07:38Z</time>
      </trkpt>
      <trkpt lat="43.79929" lon="6.78908">
        <ele>1161.599976</ele>
        <time>2011-06-15T11:07:45Z</time>
      </trkpt>
      <trkpt lat="43.79925" lon="6.78919">
        <ele>1160.5</ele>
        <time>2011-06-15T11:07:53Z</time>
      </trkpt>
      <trkpt lat="43.79919" lon="6.78927">
        <ele>1160.300049</ele>
        <time>2011-06-15T11:07:59Z</time>
      </trkpt>
      <trkpt lat="43.79913" lon="6.78934">
        <ele>1159.800049</ele>
        <time>2011-06-15T11:08:05Z</time>
      </trkpt>
      <trkpt lat="43.79907" lon="6.78942">
        <ele>1159.099976</ele>
        <time>2011-06-15T11:08:11Z</time>
      </trkpt>
      <trkpt lat="43.79902" lon="6.78951">
        <ele>1158.300049</ele>
        <time>2011-06-15T11:08:18Z</time>
      </trkpt>
      <trkpt lat="43.79897" lon="6.78961">
        <ele>1157.900024</ele>
        <time>2011-06-15T11:08:26Z</time>
      </trkpt>
      <trkpt lat="43.79896" lon="6.78963">
        <ele>1157.699951</ele>
        <time>2011-06-15T11:08:27Z</time>
      </trkpt>
      <trkpt lat="43.79889" lon="6.78983">
        <ele>1157</ele>
        <time>2011-06-15T11:08:41Z</time>
      </trkpt>
      <trkpt lat="43.79884" lon="6.78993">
        <ele>1157.099976</ele>
        <time>2011-06-15T11:08:49Z</time>
      </trkpt>
      <trkpt lat="43.79881" lon="6.79004">
        <ele>1156.199951</ele>
        <time>2011-06-15T11:08:57Z</time>
      </trkpt>
      <trkpt lat="43.79876" lon="6.79013">
        <ele>1155.800049</ele>
        <time>2011-06-15T11:09:06Z</time>
      </trkpt>
      <trkpt lat="43.79868" lon="6.79016">
        <ele>1156</ele>
        <time>2011-06-15T11:09:13Z</time>
      </trkpt>
      <trkpt lat="43.79861" lon="6.79023">
        <ele>1155.599976</ele>
        <time>2011-06-15T11:09:21Z</time>
      </trkpt>
      <trkpt lat="43.79856" lon="6.79033">
        <ele>1155.099976</ele>
        <time>2011-06-15T11:09:29Z</time>
      </trkpt>
      <trkpt lat="43.79855" lon="6.79034">
        <ele>1155.199951</ele>
        <time>2011-06-15T11:09:30Z</time>
      </trkpt>
      <trkpt lat="43.7984" lon="6.79044">
        <ele>1154.199951</ele>
        <time>2011-06-15T11:09:52Z</time>
      </trkpt>
      <trkpt lat="43.79832" lon="6.79049">
        <ele>1153.599976</ele>
        <time>2011-06-15T11:09:58Z</time>
      </trkpt>
      <trkpt lat="43.79823" lon="6.79049">
        <ele>1152</ele>
        <time>2011-06-15T11:10:08Z</time>
      </trkpt>
      <trkpt lat="43.79815" lon="6.79047">
        <ele>1151.800049</ele>
        <time>2011-06-15T11:10:18Z</time>
      </trkpt>
      <trkpt lat="43.79806" lon="6.79044">
        <ele>1151</ele>
        <time>2011-06-15T11:10:29Z</time>
      </trkpt>
      <trkpt lat="43.79799" lon="6.79044">
        <ele>1150.599976</ele>
        <time>2011-06-15T11:10:36Z</time>
      </trkpt>
      <trkpt lat="43.79797" lon="6.79044">
        <ele>1150.699951</ele>
        <time>2011-06-15T11:10:37Z</time>
      </trkpt>
      <trkpt lat="43.79785" lon="6.79057">
        <ele>1150.199951</ele>
        <time>2011-06-15T11:10:50Z</time>
      </trkpt>
      <trkpt lat="43.79782" lon="6.79069">
        <ele>1151.199951</ele>
        <time>2011-06-15T11:11:00Z</time>
      </trkpt>
      <trkpt lat="43.79782" lon="6.7908">
        <ele>1151.300049</ele>
        <time>2011-06-15T11:11:08Z</time>
      </trkpt>
      <trkpt lat="43.79782" lon="6.79092">
        <ele>1151.400024</ele>
        <time>2011-06-15T11:11:16Z</time>
      </trkpt>
      <trkpt lat="43.79782" lon="6.79104">
        <ele>1151.599976</ele>
        <time>2011-06-15T11:11:24Z</time>
      </trkpt>
      <trkpt lat="43.79782" lon="6.79116">
        <ele>1152.199951</ele>
        <time>2011-06-15T11:11:32Z</time>
      </trkpt>
      <trkpt lat="43.79781" lon="6.79128">
        <ele>1152.199951</ele>
        <time>2011-06-15T11:11:40Z</time>
      </trkpt>
      <trkpt lat="43.79781" lon="6.7913">
        <ele>1152.300049</ele>
        <time>2011-06-15T11:11:41Z</time>
      </trkpt>
      <trkpt lat="43.7978" lon="6.7915">
        <ele>1153.099976</ele>
        <time>2011-06-15T11:11:54Z</time>
      </trkpt>
      <trkpt lat="43.79779" lon="6.79161">
        <ele>1153.199951</ele>
        <time>2011-06-15T11:12:01Z</time>
      </trkpt>
      <trkpt lat="43.79778" lon="6.79173">
        <ele>1153.300049</ele>
        <time>2011-06-15T11:12:09Z</time>
      </trkpt>
      <trkpt lat="43.79777" lon="6.79184">
        <ele>1153.900024</ele>
        <time>2011-06-15T11:12:16Z</time>
      </trkpt>
      <trkpt lat="43.79777" lon="6.79196">
        <ele>1153.900024</ele>
        <time>2011-06-15T11:12:24Z</time>
      </trkpt>
      <trkpt lat="43.79776" lon="6.79208">
        <ele>1154</ele>
        <time>2011-06-15T11:12:32Z</time>
      </trkpt>
      <trkpt lat="43.79775" lon="6.7922">
        <ele>1154.099976</ele>
        <time>2011-06-15T11:12:39Z</time>
      </trkpt>
      <trkpt lat="43.79775" lon="6.79231">
        <ele>1154.099976</ele>
        <time>2011-06-15T11:12:46Z</time>
      </trkpt>
      <trkpt lat="43.79775" lon="6.79233">
        <ele>1154.300049</ele>
        <time>2011-06-15T11:12:47Z</time>
      </trkpt>
      <trkpt lat="43.79776" lon="6.79254">
        <ele>1154.199951</ele>
        <time>2011-06-15T11:13:00Z</time>
      </trkpt>
      <trkpt lat="43.79776" lon="6.79265">
        <ele>1154</ele>
        <time>2011-06-15T11:13:07Z</time>
      </trkpt>
      <trkpt lat="43.79775" lon="6.79276">
        <ele>1154.199951</ele>
        <time>2011-06-15T11:13:16Z</time>
      </trkpt>
      <trkpt lat="43.79777" lon="6.79287">
        <ele>1153.699951</ele>
        <time>2011-06-15T11:13:23Z</time>
      </trkpt>
      <trkpt lat="43.79777" lon="6.79299">
        <ele>1153.699951</ele>
        <time>2011-06-15T11:13:31Z</time>
      </trkpt>
      <trkpt lat="43.79778" lon="6.7931">
        <ele>1153.699951</ele>
        <time>2011-06-15T11:13:38Z</time>
      </trkpt>
      <trkpt lat="43.79779" lon="6.79321">
        <ele>1153.699951</ele>
        <time>2011-06-15T11:13:44Z</time>
      </trkpt>
      <trkpt lat="43.79779" lon="6.79333">
        <ele>1153.900024</ele>
        <time>2011-06-15T11:13:52Z</time>
      </trkpt>
      <trkpt lat="43.79779" lon="6.79334">
        <ele>1154.099976</ele>
        <time>2011-06-15T11:13:53Z</time>
      </trkpt>
      <trkpt lat="43.7978" lon="6.79356">
        <ele>1153.5</ele>
        <time>2011-06-15T11:14:07Z</time>
      </trkpt>
      <trkpt lat="43.79781" lon="6.79367">
        <ele>1153.800049</ele>
        <time>2011-06-15T11:14:13Z</time>
      </trkpt>
      <trkpt lat="43.79781" lon="6.79379">
        <ele>1153.800049</ele>
        <time>2011-06-15T11:14:22Z</time>
      </trkpt>
      <trkpt lat="43.79781" lon="6.79391">
        <ele>1153.599976</ele>
        <time>2011-06-15T11:14:29Z</time>
      </trkpt>
      <trkpt lat="43.79783" lon="6.79403">
        <ele>1153.5</ele>
        <time>2011-06-15T11:14:35Z</time>
      </trkpt>
      <trkpt lat="43.79785" lon="6.79414">
        <ele>1153.599976</ele>
        <time>2011-06-15T11:14:41Z</time>
      </trkpt>
      <trkpt lat="43.79787" lon="6.79426">
        <ele>1153.300049</ele>
        <time>2011-06-15T11:14:51Z</time>
      </trkpt>
      <trkpt lat="43.79788" lon="6.79437">
        <ele>1153.5</ele>
        <time>2011-06-15T11:14:57Z</time>
      </trkpt>
      <trkpt lat="43.79788" lon="6.79439">
        <ele>1153.5</ele>
        <time>2011-06-15T11:14:58Z</time>
      </trkpt>
      <trkpt lat="43.79788" lon="6.79462">
        <ele>1152.300049</ele>
        <time>2011-06-15T11:15:12Z</time>
      </trkpt>
      <trkpt lat="43.79789" lon="6.79474">
        <ele>1152.699951</ele>
        <time>2011-06-15T11:15:19Z</time>
      </trkpt>
      <trkpt lat="43.7979" lon="6.79485">
        <ele>1152.300049</ele>
        <time>2011-06-15T11:15:26Z</time>
      </trkpt>
      <trkpt lat="43.7979" lon="6.79497">
        <ele>1151.800049</ele>
        <time>2011-06-15T11:15:33Z</time>
      </trkpt>
      <trkpt lat="43.7979" lon="6.79509">
        <ele>1151.300049</ele>
        <time>2011-06-15T11:15:41Z</time>
      </trkpt>
      <trkpt lat="43.7979" lon="6.79521">
        <ele>1150.400024</ele>
        <time>2011-06-15T11:15:48Z</time>
      </trkpt>
      <trkpt lat="43.7979" lon="6.79533">
        <ele>1150.199951</ele>
        <time>2011-06-15T11:15:55Z</time>
      </trkpt>
      <trkpt lat="43.7979" lon="6.79545">
        <ele>1149.599976</ele>
        <time>2011-06-15T11:16:02Z</time>
      </trkpt>
      <trkpt lat="43.7979" lon="6.79547">
        <ele>1149.699951</ele>
        <time>2011-06-15T11:16:03Z</time>
      </trkpt>
      <trkpt lat="43.79791" lon="6.79567">
        <ele>1149.300049</ele>
        <time>2011-06-15T11:16:15Z</time>
      </trkpt>
      <trkpt lat="43.79791" lon="6.79579">
        <ele>1148.599976</ele>
        <time>2011-06-15T11:16:22Z</time>
      </trkpt>
      <trkpt lat="43.7979" lon="6.79591">
        <ele>1148.400024</ele>
        <time>2011-06-15T11:16:29Z</time>
      </trkpt>
      <trkpt lat="43.7979" lon="6.79602">
        <ele>1148.300049</ele>
        <time>2011-06-15T11:16:36Z</time>
      </trkpt>
      <trkpt lat="43.79789" lon="6.79614">
        <ele>1148.800049</ele>
        <time>2011-06-15T11:16:44Z</time>
      </trkpt>
      <trkpt lat="43.79788" lon="6.79626">
        <ele>1148.400024</ele>
        <time>2011-06-15T11:16:53Z</time>
      </trkpt>
      <trkpt lat="43.79788" lon="6.79638">
        <ele>1148.300049</ele>
        <time>2011-06-15T11:17:00Z</time>
      </trkpt>
      <trkpt lat="43.79788" lon="6.7965">
        <ele>1148.300049</ele>
        <time>2011-06-15T11:17:07Z</time>
      </trkpt>
      <trkpt lat="43.79788" lon="6.79652">
        <ele>1148.199951</ele>
        <time>2011-06-15T11:17:08Z</time>
      </trkpt>
      <trkpt lat="43.79788" lon="6.79673">
        <ele>1149</ele>
        <time>2011-06-15T11:17:21Z</time>
      </trkpt>
      <trkpt lat="43.79788" lon="6.79683">
        <ele>1149.199951</ele>
        <time>2011-06-15T11:17:28Z</time>
      </trkpt>
      <trkpt lat="43.79788" lon="6.79695">
        <ele>1149.199951</ele>
        <time>2011-06-15T11:17:35Z</time>
      </trkpt>
      <trkpt lat="43.79788" lon="6.79707">
        <ele>1149</ele>
        <time>2011-06-15T11:17:42Z</time>
      </trkpt>
      <trkpt lat="43.79788" lon="6.79719">
        <ele>1149.800049</ele>
        <time>2011-06-15T11:17:49Z</time>
      </trkpt>
      <trkpt lat="43.79788" lon="6.79731">
        <ele>1150.199951</ele>
        <time>2011-06-15T11:17:57Z</time>
      </trkpt>
      <trkpt lat="43.79788" lon="6.79743">
        <ele>1150.599976</ele>
        <time>2011-06-15T11:18:04Z</time>
      </trkpt>
      <trkpt lat="43.79788" lon="6.79755">
        <ele>1150.800049</ele>
        <time>2011-06-15T11:18:12Z</time>
      </trkpt>
      <trkpt lat="43.79788" lon="6.79757">
        <ele>1151</ele>
        <time>2011-06-15T11:18:13Z</time>
      </trkpt>
      <trkpt lat="43.79791" lon="6.79779">
        <ele>1151.599976</ele>
        <time>2011-06-15T11:18:26Z</time>
      </trkpt>
      <trkpt lat="43.79791" lon="6.79792">
        <ele>1151.800049</ele>
        <time>2011-06-15T11:18:33Z</time>
      </trkpt>
      <trkpt lat="43.79792" lon="6.79804">
        <ele>1151.300049</ele>
        <time>2011-06-15T11:18:40Z</time>
      </trkpt>
      <trkpt lat="43.79792" lon="6.79815">
        <ele>1151.599976</ele>
        <time>2011-06-15T11:18:47Z</time>
      </trkpt>
      <trkpt lat="43.79793" lon="6.79827">
        <ele>1152</ele>
        <time>2011-06-15T11:18:55Z</time>
      </trkpt>
      <trkpt lat="43.79794" lon="6.79839">
        <ele>1152</ele>
        <time>2011-06-15T11:19:05Z</time>
      </trkpt>
      <trkpt lat="43.79794" lon="6.7985">
        <ele>1151.5</ele>
        <time>2011-06-15T11:19:12Z</time>
      </trkpt>
      <trkpt lat="43.79795" lon="6.79862">
        <ele>1151.699951</ele>
        <time>2011-06-15T11:19:19Z</time>
      </trkpt>
      <trkpt lat="43.79795" lon="6.79864">
        <ele>1151.599976</ele>
        <time>2011-06-15T11:19:20Z</time>
      </trkpt>
      <trkpt lat="43.79796" lon="6.79885">
        <ele>1152.099976</ele>
        <time>2011-06-15T11:19:33Z</time>
      </trkpt>
      <trkpt lat="43.79796" lon="6.79897">
        <ele>1152.300049</ele>
        <time>2011-06-15T11:19:41Z</time>
      </trkpt>
      <trkpt lat="43.79797" lon="6.79908">
        <ele>1152.300049</ele>
        <time>2011-06-15T11:19:48Z</time>
      </trkpt>
      <trkpt lat="43.79799" lon="6.7992">
        <ele>1152.599976</ele>
        <time>2011-06-15T11:19:55Z</time>
      </trkpt>
      <trkpt lat="43.798" lon="6.79931">
        <ele>1153.199951</ele>
        <time>2011-06-15T11:20:02Z</time>
      </trkpt>
      <trkpt lat="43.79801" lon="6.79943">
        <ele>1153</ele>
        <time>2011-06-15T11:20:11Z</time>
      </trkpt>
      <trkpt lat="43.79802" lon="6.79955">
        <ele>1153.599976</ele>
        <time>2011-06-15T11:20:20Z</time>
      </trkpt>
      <trkpt lat="43.79802" lon="6.79957">
        <ele>1153.800049</ele>
        <time>2011-06-15T11:20:21Z</time>
      </trkpt>
      <trkpt lat="43.79805" lon="6.79976">
        <ele>1154.5</ele>
        <time>2011-06-15T11:20:32Z</time>
      </trkpt>
      <trkpt lat="43.79806" lon="6.79988">
        <ele>1155</ele>
        <time>2011-06-15T11:20:39Z</time>
      </trkpt>
      <trkpt lat="43.79808" lon="6.8">
        <ele>1155.900024</ele>
        <time>2011-06-15T11:20:47Z</time>
      </trkpt>
      <trkpt lat="43.79809" lon="6.80011">
        <ele>1156</ele>
        <time>2011-06-15T11:20:54Z</time>
      </trkpt>
      <trkpt lat="43.79812" lon="6.80021">
        <ele>1156.300049</ele>
        <time>2011-06-15T11:21:01Z</time>
      </trkpt>
      <trkpt lat="43.79815" lon="6.80031">
        <ele>1156.5</ele>
        <time>2011-06-15T11:21:07Z</time>
      </trkpt>
      <trkpt lat="43.79819" lon="6.80042">
        <ele>1156.699951</ele>
        <time>2011-06-15T11:21:13Z</time>
      </trkpt>
      <trkpt lat="43.79823" lon="6.80052">
        <ele>1156.800049</ele>
        <time>2011-06-15T11:21:19Z</time>
      </trkpt>
      <trkpt lat="43.79827" lon="6.80061">
        <ele>1156.900024</ele>
        <time>2011-06-15T11:21:25Z</time>
      </trkpt>
      <trkpt lat="43.79828" lon="6.80063">
        <ele>1157</ele>
        <time>2011-06-15T11:21:26Z</time>
      </trkpt>
      <trkpt lat="43.79837" lon="6.80081">
        <ele>1157</ele>
        <time>2011-06-15T11:21:40Z</time>
      </trkpt>
      <trkpt lat="43.79842" lon="6.8009">
        <ele>1156.699951</ele>
        <time>2011-06-15T11:21:47Z</time>
      </trkpt>
      <trkpt lat="43.79847" lon="6.801">
        <ele>1156.300049</ele>
        <time>2011-06-15T11:21:55Z</time>
      </trkpt>
      <trkpt lat="43.79852" lon="6.8011">
        <ele>1156.300049</ele>
        <time>2011-06-15T11:22:02Z</time>
      </trkpt>
      <trkpt lat="43.79857" lon="6.80119">
        <ele>1156.199951</ele>
        <time>2011-06-15T11:22:09Z</time>
      </trkpt>
      <trkpt lat="43.79862" lon="6.80128">
        <ele>1156.099976</ele>
        <time>2011-06-15T11:22:17Z</time>
      </trkpt>
      <trkpt lat="43.79869" lon="6.80136">
        <ele>1155.599976</ele>
        <time>2011-06-15T11:22:26Z</time>
      </trkpt>
      <trkpt lat="43.7987" lon="6.80136">
        <ele>1155.900024</ele>
        <time>2011-06-15T11:22:27Z</time>
      </trkpt>
      <trkpt lat="43.79885" lon="6.8014">
        <ele>1158.099976</ele>
        <time>2011-06-15T11:22:43Z</time>
      </trkpt>
      <trkpt lat="43.79894" lon="6.8014">
        <ele>1159.199951</ele>
        <time>2011-06-15T11:22:52Z</time>
      </trkpt>
      <trkpt lat="43.79902" lon="6.80143">
        <ele>1159.900024</ele>
        <time>2011-06-15T11:23:00Z</time>
      </trkpt>
      <trkpt lat="43.7991" lon="6.80147">
        <ele>1161.300049</ele>
        <time>2011-06-15T11:23:09Z</time>
      </trkpt>
      <trkpt lat="43.79919" lon="6.8015">
        <ele>1162.599976</ele>
        <time>2011-06-15T11:23:18Z</time>
      </trkpt>
      <trkpt lat="43.79927" lon="6.80147">
        <ele>1163.5</ele>
        <time>2011-06-15T11:23:29Z</time>
      </trkpt>
      <trkpt lat="43.79928" lon="6.80147">
        <ele>1163.599976</ele>
        <time>2011-06-15T11:23:30Z</time>
      </trkpt>
    </trkseg>
  </trk>
</gpx>